<?xml version="1.0" encoding="UTF-8" standalone="no" ?>
<gpx xmlns="http://www.topografix.com/GPX/1/1" xmlns:xsi="http://www.w3.org/2001/XMLSchema-instance" xsi:schemaLocation="http://www.topografix.com/GPX/1/1 http://www.topografix.com/GPX/1/1/gpx.xsd" version="1.1" creator="VisuGPX - https://www.visugpx.com">
  <metadata>
    <name>Circuit 62km</name>
  </metadata>
  <wpt lat="48.59444" lon="-3.14805">
    <ele>56</ele>
    <name><![CDATA[Ravitaillement]]></name>
    <desc><![CDATA[]]></desc>
  </wpt>
  <wpt lat="48.56183" lon="-3.08336">
    <ele>134.5</ele>
    <name><![CDATA[Ravitaillement]]></name>
    <desc><![CDATA[]]></desc>
  </wpt>
  <trk>
    <name><![CDATA[Rando St Agathon 61kms 2024-19091727]]></name>
    <trkseg>
      <trkpt lat="48.5574" lon="-3.10457">
        <ele>120</ele>
        <time>2024-06-03T16:20:31Z</time>
      </trkpt>
      <trkpt lat="48.55761" lon="-3.10439">
        <ele>120</ele>
        <time>2024-06-03T16:20:37Z</time>
      </trkpt>
      <trkpt lat="48.55782" lon="-3.10439">
        <ele>119</ele>
        <time>2024-06-03T16:20:42Z</time>
      </trkpt>
      <trkpt lat="48.55814" lon="-3.10446">
        <ele>118</ele>
        <time>2024-06-03T16:20:49Z</time>
      </trkpt>
      <trkpt lat="48.55818" lon="-3.10369">
        <ele>119</ele>
        <time>2024-06-03T16:21:01Z</time>
      </trkpt>
      <trkpt lat="48.5584" lon="-3.1034">
        <ele>119</ele>
        <time>2024-06-03T16:21:08Z</time>
      </trkpt>
      <trkpt lat="48.5589" lon="-3.10334">
        <ele>118</ele>
        <time>2024-06-03T16:21:20Z</time>
      </trkpt>
      <trkpt lat="48.55916" lon="-3.10401">
        <ele>117</ele>
        <time>2024-06-03T16:21:32Z</time>
      </trkpt>
      <trkpt lat="48.55914" lon="-3.10465">
        <ele>115</ele>
        <time>2024-06-03T16:21:41Z</time>
      </trkpt>
      <trkpt lat="48.55941" lon="-3.1051">
        <ele>113</ele>
        <time>2024-06-03T16:21:51Z</time>
      </trkpt>
      <trkpt lat="48.55923" lon="-3.10572">
        <ele>114</ele>
        <time>2024-06-03T16:22:01Z</time>
      </trkpt>
      <trkpt lat="48.55951" lon="-3.10718">
        <ele>117</ele>
        <time>2024-06-03T16:22:25Z</time>
      </trkpt>
      <trkpt lat="48.55996" lon="-3.10794">
        <ele>118</ele>
        <time>2024-06-03T16:22:41Z</time>
      </trkpt>
      <trkpt lat="48.56053" lon="-3.11037">
        <ele>121</ele>
        <time>2024-06-03T16:23:20Z</time>
      </trkpt>
      <trkpt lat="48.56157" lon="-3.11059">
        <ele>121</ele>
        <time>2024-06-03T16:23:45Z</time>
      </trkpt>
      <trkpt lat="48.56194" lon="-3.10977">
        <ele>117</ele>
        <time>2024-06-03T16:24:00Z</time>
      </trkpt>
      <trkpt lat="48.56221" lon="-3.10948">
        <ele>113</ele>
        <time>2024-06-03T16:24:08Z</time>
      </trkpt>
      <trkpt lat="48.5633" lon="-3.11052">
        <ele>106</ele>
        <time>2024-06-03T16:24:38Z</time>
      </trkpt>
      <trkpt lat="48.56342" lon="-3.11049">
        <ele>105</ele>
        <time>2024-06-03T16:24:41Z</time>
      </trkpt>
      <trkpt lat="48.56349" lon="-3.11054">
        <ele>105</ele>
        <time>2024-06-03T16:24:43Z</time>
      </trkpt>
      <trkpt lat="48.56328" lon="-3.11061">
        <ele>106</ele>
        <time>2024-06-03T16:24:48Z</time>
      </trkpt>
      <trkpt lat="48.56332" lon="-3.1107">
        <ele>106</ele>
        <time>2024-06-03T16:24:49Z</time>
      </trkpt>
      <trkpt lat="48.56303" lon="-3.11143">
        <ele>110</ele>
        <time>2024-06-03T16:25:03Z</time>
      </trkpt>
      <trkpt lat="48.56297" lon="-3.11175">
        <ele>111</ele>
        <time>2024-06-03T16:25:08Z</time>
      </trkpt>
      <trkpt lat="48.56278" lon="-3.11181">
        <ele>114</ele>
        <time>2024-06-03T16:25:12Z</time>
      </trkpt>
      <trkpt lat="48.56268" lon="-3.1118">
        <ele>115</ele>
        <time>2024-06-03T16:25:15Z</time>
      </trkpt>
      <trkpt lat="48.56231" lon="-3.11206">
        <ele>118</ele>
        <time>2024-06-03T16:25:24Z</time>
      </trkpt>
      <trkpt lat="48.56221" lon="-3.1122">
        <ele>118</ele>
        <time>2024-06-03T16:25:27Z</time>
      </trkpt>
      <trkpt lat="48.5622" lon="-3.11261">
        <ele>118</ele>
        <time>2024-06-03T16:25:34Z</time>
      </trkpt>
      <trkpt lat="48.56224" lon="-3.11294">
        <ele>118</ele>
        <time>2024-06-03T16:25:39Z</time>
      </trkpt>
      <trkpt lat="48.56241" lon="-3.11314">
        <ele>117</ele>
        <time>2024-06-03T16:25:44Z</time>
      </trkpt>
      <trkpt lat="48.56261" lon="-3.11296">
        <ele>116</ele>
        <time>2024-06-03T16:25:49Z</time>
      </trkpt>
      <trkpt lat="48.56294" lon="-3.11287">
        <ele>113</ele>
        <time>2024-06-03T16:25:57Z</time>
      </trkpt>
      <trkpt lat="48.56319" lon="-3.11286">
        <ele>111</ele>
        <time>2024-06-03T16:26:03Z</time>
      </trkpt>
      <trkpt lat="48.56334" lon="-3.1131">
        <ele>110</ele>
        <time>2024-06-03T16:26:08Z</time>
      </trkpt>
      <trkpt lat="48.56374" lon="-3.11339">
        <ele>109</ele>
        <time>2024-06-03T16:26:18Z</time>
      </trkpt>
      <trkpt lat="48.5638" lon="-3.11356">
        <ele>109</ele>
        <time>2024-06-03T16:26:21Z</time>
      </trkpt>
      <trkpt lat="48.56363" lon="-3.11405">
        <ele>113</ele>
        <time>2024-06-03T16:26:30Z</time>
      </trkpt>
      <trkpt lat="48.56351" lon="-3.11423">
        <ele>115</ele>
        <time>2024-06-03T16:26:34Z</time>
      </trkpt>
      <trkpt lat="48.56337" lon="-3.11465">
        <ele>118</ele>
        <time>2024-06-03T16:26:41Z</time>
      </trkpt>
      <trkpt lat="48.56317" lon="-3.11504">
        <ele>119</ele>
        <time>2024-06-03T16:26:49Z</time>
      </trkpt>
      <trkpt lat="48.56305" lon="-3.11514">
        <ele>120</ele>
        <time>2024-06-03T16:26:52Z</time>
      </trkpt>
      <trkpt lat="48.56304" lon="-3.11527">
        <ele>119</ele>
        <time>2024-06-03T16:26:54Z</time>
      </trkpt>
      <trkpt lat="48.56324" lon="-3.11586">
        <ele>118</ele>
        <time>2024-06-03T16:27:04Z</time>
      </trkpt>
      <trkpt lat="48.56346" lon="-3.11619">
        <ele>118</ele>
        <time>2024-06-03T16:27:12Z</time>
      </trkpt>
      <trkpt lat="48.56359" lon="-3.116">
        <ele>117</ele>
        <time>2024-06-03T16:27:16Z</time>
      </trkpt>
      <trkpt lat="48.56387" lon="-3.11467">
        <ele>113</ele>
        <time>2024-06-03T16:27:37Z</time>
      </trkpt>
      <trkpt lat="48.56395" lon="-3.11455">
        <ele>112</ele>
        <time>2024-06-03T16:27:40Z</time>
      </trkpt>
      <trkpt lat="48.56408" lon="-3.11416">
        <ele>110</ele>
        <time>2024-06-03T16:27:47Z</time>
      </trkpt>
      <trkpt lat="48.56408" lon="-3.1139">
        <ele>109</ele>
        <time>2024-06-03T16:27:51Z</time>
      </trkpt>
      <trkpt lat="48.56413" lon="-3.11364">
        <ele>108</ele>
        <time>2024-06-03T16:27:55Z</time>
      </trkpt>
      <trkpt lat="48.56414" lon="-3.11329">
        <ele>107</ele>
        <time>2024-06-03T16:28:00Z</time>
      </trkpt>
      <trkpt lat="48.56408" lon="-3.1131">
        <ele>107</ele>
        <time>2024-06-03T16:28:04Z</time>
      </trkpt>
      <trkpt lat="48.5638" lon="-3.11282">
        <ele>108</ele>
        <time>2024-06-03T16:28:11Z</time>
      </trkpt>
      <trkpt lat="48.56375" lon="-3.11265">
        <ele>108</ele>
        <time>2024-06-03T16:28:14Z</time>
      </trkpt>
      <trkpt lat="48.56376" lon="-3.1122">
        <ele>107</ele>
        <time>2024-06-03T16:28:21Z</time>
      </trkpt>
      <trkpt lat="48.56387" lon="-3.11189">
        <ele>105</ele>
        <time>2024-06-03T16:28:27Z</time>
      </trkpt>
      <trkpt lat="48.564" lon="-3.11176">
        <ele>105</ele>
        <time>2024-06-03T16:28:30Z</time>
      </trkpt>
      <trkpt lat="48.56405" lon="-3.11165">
        <ele>104</ele>
        <time>2024-06-03T16:28:32Z</time>
      </trkpt>
      <trkpt lat="48.56433" lon="-3.1116">
        <ele>103</ele>
        <time>2024-06-03T16:28:39Z</time>
      </trkpt>
      <trkpt lat="48.56449" lon="-3.11151">
        <ele>102</ele>
        <time>2024-06-03T16:28:43Z</time>
      </trkpt>
      <trkpt lat="48.56451" lon="-3.11137">
        <ele>102</ele>
        <time>2024-06-03T16:28:45Z</time>
      </trkpt>
      <trkpt lat="48.56447" lon="-3.11118">
        <ele>102</ele>
        <time>2024-06-03T16:28:48Z</time>
      </trkpt>
      <trkpt lat="48.56447" lon="-3.11095">
        <ele>102</ele>
        <time>2024-06-03T16:28:52Z</time>
      </trkpt>
      <trkpt lat="48.56452" lon="-3.11004">
        <ele>102</ele>
        <time>2024-06-03T16:29:06Z</time>
      </trkpt>
      <trkpt lat="48.56447" lon="-3.10976">
        <ele>103</ele>
        <time>2024-06-03T16:29:10Z</time>
      </trkpt>
      <trkpt lat="48.56417" lon="-3.10947">
        <ele>103</ele>
        <time>2024-06-03T16:29:19Z</time>
      </trkpt>
      <trkpt lat="48.56394" lon="-3.10932">
        <ele>104</ele>
        <time>2024-06-03T16:29:25Z</time>
      </trkpt>
      <trkpt lat="48.56388" lon="-3.1089">
        <ele>104</ele>
        <time>2024-06-03T16:29:31Z</time>
      </trkpt>
      <trkpt lat="48.56356" lon="-3.10866">
        <ele>104</ele>
        <time>2024-06-03T16:29:40Z</time>
      </trkpt>
      <trkpt lat="48.56295" lon="-3.10858">
        <ele>106</ele>
        <time>2024-06-03T16:29:54Z</time>
      </trkpt>
      <trkpt lat="48.56196" lon="-3.10752">
        <ele>108</ele>
        <time>2024-06-03T16:30:22Z</time>
      </trkpt>
      <trkpt lat="48.56192" lon="-3.10726">
        <ele>108</ele>
        <time>2024-06-03T16:30:26Z</time>
      </trkpt>
      <trkpt lat="48.56223" lon="-3.10721">
        <ele>108</ele>
        <time>2024-06-03T16:30:34Z</time>
      </trkpt>
      <trkpt lat="48.5622" lon="-3.10736">
        <ele>107</ele>
        <time>2024-06-03T16:30:36Z</time>
      </trkpt>
      <trkpt lat="48.56229" lon="-3.10761">
        <ele>107</ele>
        <time>2024-06-03T16:30:40Z</time>
      </trkpt>
      <trkpt lat="48.56241" lon="-3.1077">
        <ele>107</ele>
        <time>2024-06-03T16:30:44Z</time>
      </trkpt>
      <trkpt lat="48.56264" lon="-3.108">
        <ele>107</ele>
        <time>2024-06-03T16:30:51Z</time>
      </trkpt>
      <trkpt lat="48.56278" lon="-3.10825">
        <ele>106</ele>
        <time>2024-06-03T16:30:56Z</time>
      </trkpt>
      <trkpt lat="48.56301" lon="-3.10848">
        <ele>105</ele>
        <time>2024-06-03T16:31:02Z</time>
      </trkpt>
      <trkpt lat="48.56343" lon="-3.10847">
        <ele>103</ele>
        <time>2024-06-03T16:31:12Z</time>
      </trkpt>
      <trkpt lat="48.56352" lon="-3.10803">
        <ele>105</ele>
        <time>2024-06-03T16:31:19Z</time>
      </trkpt>
      <trkpt lat="48.56367" lon="-3.10793">
        <ele>106</ele>
        <time>2024-06-03T16:31:23Z</time>
      </trkpt>
      <trkpt lat="48.56374" lon="-3.10773">
        <ele>108</ele>
        <time>2024-06-03T16:31:26Z</time>
      </trkpt>
      <trkpt lat="48.56395" lon="-3.10786">
        <ele>108</ele>
        <time>2024-06-03T16:31:32Z</time>
      </trkpt>
      <trkpt lat="48.56463" lon="-3.10876">
        <ele>105</ele>
        <time>2024-06-03T16:31:53Z</time>
      </trkpt>
      <trkpt lat="48.56491" lon="-3.10883">
        <ele>106</ele>
        <time>2024-06-03T16:31:59Z</time>
      </trkpt>
      <trkpt lat="48.56481" lon="-3.1086">
        <ele>107</ele>
        <time>2024-06-03T16:32:04Z</time>
      </trkpt>
      <trkpt lat="48.56505" lon="-3.1084">
        <ele>109</ele>
        <time>2024-06-03T16:32:10Z</time>
      </trkpt>
      <trkpt lat="48.56547" lon="-3.10792">
        <ele>113</ele>
        <time>2024-06-03T16:32:22Z</time>
      </trkpt>
      <trkpt lat="48.56559" lon="-3.10752">
        <ele>116</ele>
        <time>2024-06-03T16:32:29Z</time>
      </trkpt>
      <trkpt lat="48.5653" lon="-3.10682">
        <ele>123</ele>
        <time>2024-06-03T16:32:42Z</time>
      </trkpt>
      <trkpt lat="48.56516" lon="-3.10686">
        <ele>123</ele>
        <time>2024-06-03T16:32:45Z</time>
      </trkpt>
      <trkpt lat="48.56498" lon="-3.1071">
        <ele>121</ele>
        <time>2024-06-03T16:32:51Z</time>
      </trkpt>
      <trkpt lat="48.5648" lon="-3.10749">
        <ele>117</ele>
        <time>2024-06-03T16:32:58Z</time>
      </trkpt>
      <trkpt lat="48.56466" lon="-3.10736">
        <ele>117</ele>
        <time>2024-06-03T16:33:02Z</time>
      </trkpt>
      <trkpt lat="48.56442" lon="-3.10758">
        <ele>114</ele>
        <time>2024-06-03T16:33:09Z</time>
      </trkpt>
      <trkpt lat="48.56432" lon="-3.1074">
        <ele>115</ele>
        <time>2024-06-03T16:33:12Z</time>
      </trkpt>
      <trkpt lat="48.56401" lon="-3.10712">
        <ele>116</ele>
        <time>2024-06-03T16:33:21Z</time>
      </trkpt>
      <trkpt lat="48.56406" lon="-3.10668">
        <ele>122</ele>
        <time>2024-06-03T16:33:28Z</time>
      </trkpt>
      <trkpt lat="48.56404" lon="-3.10636">
        <ele>123</ele>
        <time>2024-06-03T16:33:33Z</time>
      </trkpt>
      <trkpt lat="48.5638" lon="-3.1064">
        <ele>122</ele>
        <time>2024-06-03T16:33:38Z</time>
      </trkpt>
      <trkpt lat="48.56358" lon="-3.10656">
        <ele>120</ele>
        <time>2024-06-03T16:33:44Z</time>
      </trkpt>
      <trkpt lat="48.56336" lon="-3.1066">
        <ele>118</ele>
        <time>2024-06-03T16:33:49Z</time>
      </trkpt>
      <trkpt lat="48.56304" lon="-3.10641">
        <ele>116</ele>
        <time>2024-06-03T16:33:57Z</time>
      </trkpt>
      <trkpt lat="48.56281" lon="-3.10621">
        <ele>115</ele>
        <time>2024-06-03T16:34:03Z</time>
      </trkpt>
      <trkpt lat="48.56264" lon="-3.10625">
        <ele>114</ele>
        <time>2024-06-03T16:34:07Z</time>
      </trkpt>
      <trkpt lat="48.56247" lon="-3.1064">
        <ele>111</ele>
        <time>2024-06-03T16:34:12Z</time>
      </trkpt>
      <trkpt lat="48.56236" lon="-3.10613">
        <ele>112</ele>
        <time>2024-06-03T16:34:17Z</time>
      </trkpt>
      <trkpt lat="48.56237" lon="-3.10565">
        <ele>114</ele>
        <time>2024-06-03T16:34:24Z</time>
      </trkpt>
      <trkpt lat="48.56234" lon="-3.10547">
        <ele>114</ele>
        <time>2024-06-03T16:34:27Z</time>
      </trkpt>
      <trkpt lat="48.56228" lon="-3.10584">
        <ele>113</ele>
        <time>2024-06-03T16:34:33Z</time>
      </trkpt>
      <trkpt lat="48.56213" lon="-3.10579">
        <ele>112</ele>
        <time>2024-06-03T16:34:37Z</time>
      </trkpt>
      <trkpt lat="48.56192" lon="-3.10548">
        <ele>111</ele>
        <time>2024-06-03T16:34:43Z</time>
      </trkpt>
      <trkpt lat="48.56182" lon="-3.1051">
        <ele>112</ele>
        <time>2024-06-03T16:34:50Z</time>
      </trkpt>
      <trkpt lat="48.56177" lon="-3.10465">
        <ele>111</ele>
        <time>2024-06-03T16:34:57Z</time>
      </trkpt>
      <trkpt lat="48.56181" lon="-3.10421">
        <ele>110</ele>
        <time>2024-06-03T16:35:04Z</time>
      </trkpt>
      <trkpt lat="48.56172" lon="-3.10385">
        <ele>109</ele>
        <time>2024-06-03T16:35:10Z</time>
      </trkpt>
      <trkpt lat="48.56157" lon="-3.10393">
        <ele>108</ele>
        <time>2024-06-03T16:35:13Z</time>
      </trkpt>
      <trkpt lat="48.56146" lon="-3.10341">
        <ele>108</ele>
        <time>2024-06-03T16:35:22Z</time>
      </trkpt>
      <trkpt lat="48.56061" lon="-3.10217">
        <ele>111</ele>
        <time>2024-06-03T16:35:49Z</time>
      </trkpt>
      <trkpt lat="48.56011" lon="-3.101">
        <ele>111</ele>
        <time>2024-06-03T16:36:11Z</time>
      </trkpt>
      <trkpt lat="48.56006" lon="-3.09934">
        <ele>112</ele>
        <time>2024-06-03T16:36:37Z</time>
      </trkpt>
      <trkpt lat="48.5598" lon="-3.09887">
        <ele>110</ele>
        <time>2024-06-03T16:36:46Z</time>
      </trkpt>
      <trkpt lat="48.55935" lon="-3.09824">
        <ele>110</ele>
        <time>2024-06-03T16:37:00Z</time>
      </trkpt>
      <trkpt lat="48.5602" lon="-3.09632">
        <ele>113</ele>
        <time>2024-06-03T16:37:36Z</time>
      </trkpt>
      <trkpt lat="48.56098" lon="-3.09633">
        <ele>115</ele>
        <time>2024-06-03T16:37:54Z</time>
      </trkpt>
      <trkpt lat="48.56153" lon="-3.09668">
        <ele>118</ele>
        <time>2024-06-03T16:38:08Z</time>
      </trkpt>
      <trkpt lat="48.56281" lon="-3.09793">
        <ele>123</ele>
        <time>2024-06-03T16:38:44Z</time>
      </trkpt>
      <trkpt lat="48.56329" lon="-3.09815">
        <ele>123</ele>
        <time>2024-06-03T16:38:56Z</time>
      </trkpt>
      <trkpt lat="48.56359" lon="-3.0981">
        <ele>124</ele>
        <time>2024-06-03T16:39:03Z</time>
      </trkpt>
      <trkpt lat="48.56368" lon="-3.09828">
        <ele>125</ele>
        <time>2024-06-03T16:39:06Z</time>
      </trkpt>
      <trkpt lat="48.56302" lon="-3.0999">
        <ele>125</ele>
        <time>2024-06-03T16:39:35Z</time>
      </trkpt>
      <trkpt lat="48.5628" lon="-3.10106">
        <ele>127</ele>
        <time>2024-06-03T16:39:54Z</time>
      </trkpt>
      <trkpt lat="48.5633" lon="-3.10164">
        <ele>132</ele>
        <time>2024-06-03T16:40:09Z</time>
      </trkpt>
      <trkpt lat="48.56405" lon="-3.10183">
        <ele>132</ele>
        <time>2024-06-03T16:40:27Z</time>
      </trkpt>
      <trkpt lat="48.56453" lon="-3.10247">
        <ele>129</ele>
        <time>2024-06-03T16:40:42Z</time>
      </trkpt>
      <trkpt lat="48.56432" lon="-3.10371">
        <ele>124</ele>
        <time>2024-06-03T16:41:01Z</time>
      </trkpt>
      <trkpt lat="48.56502" lon="-3.10436">
        <ele>120</ele>
        <time>2024-06-03T16:41:21Z</time>
      </trkpt>
      <trkpt lat="48.5658" lon="-3.1047">
        <ele>121</ele>
        <time>2024-06-03T16:41:39Z</time>
      </trkpt>
      <trkpt lat="48.56676" lon="-3.10506">
        <ele>122</ele>
        <time>2024-06-03T16:42:03Z</time>
      </trkpt>
      <trkpt lat="48.56662" lon="-3.10568">
        <ele>121</ele>
        <time>2024-06-03T16:42:13Z</time>
      </trkpt>
      <trkpt lat="48.56672" lon="-3.10594">
        <ele>120</ele>
        <time>2024-06-03T16:42:17Z</time>
      </trkpt>
      <trkpt lat="48.56667" lon="-3.10664">
        <ele>121</ele>
        <time>2024-06-03T16:42:28Z</time>
      </trkpt>
      <trkpt lat="48.5665" lon="-3.10744">
        <ele>118</ele>
        <time>2024-06-03T16:42:41Z</time>
      </trkpt>
      <trkpt lat="48.5662" lon="-3.10804">
        <ele>114</ele>
        <time>2024-06-03T16:42:53Z</time>
      </trkpt>
      <trkpt lat="48.56611" lon="-3.10846">
        <ele>112</ele>
        <time>2024-06-03T16:43:00Z</time>
      </trkpt>
      <trkpt lat="48.56765" lon="-3.10914">
        <ele>119</ele>
        <time>2024-06-03T16:43:37Z</time>
      </trkpt>
      <trkpt lat="48.56807" lon="-3.10917">
        <ele>120</ele>
        <time>2024-06-03T16:43:47Z</time>
      </trkpt>
      <trkpt lat="48.56896" lon="-3.10965">
        <ele>120</ele>
        <time>2024-06-03T16:44:09Z</time>
      </trkpt>
      <trkpt lat="48.57059" lon="-3.11025">
        <ele>115</ele>
        <time>2024-06-03T16:44:48Z</time>
      </trkpt>
      <trkpt lat="48.57153" lon="-3.11081">
        <ele>113</ele>
        <time>2024-06-03T16:45:12Z</time>
      </trkpt>
      <trkpt lat="48.57135" lon="-3.11126">
        <ele>114</ele>
        <time>2024-06-03T16:45:20Z</time>
      </trkpt>
      <trkpt lat="48.57102" lon="-3.11164">
        <ele>113</ele>
        <time>2024-06-03T16:45:30Z</time>
      </trkpt>
      <trkpt lat="48.5707" lon="-3.11292">
        <ele>110</ele>
        <time>2024-06-03T16:45:51Z</time>
      </trkpt>
      <trkpt lat="48.5709" lon="-3.11412">
        <ele>108</ele>
        <time>2024-06-03T16:46:10Z</time>
      </trkpt>
      <trkpt lat="48.57142" lon="-3.11512">
        <ele>105</ele>
        <time>2024-06-03T16:46:30Z</time>
      </trkpt>
      <trkpt lat="48.5719" lon="-3.11567">
        <ele>104</ele>
        <time>2024-06-03T16:46:44Z</time>
      </trkpt>
      <trkpt lat="48.57212" lon="-3.1157">
        <ele>105</ele>
        <time>2024-06-03T16:46:49Z</time>
      </trkpt>
      <trkpt lat="48.57233" lon="-3.11606">
        <ele>105</ele>
        <time>2024-06-03T16:46:56Z</time>
      </trkpt>
      <trkpt lat="48.57247" lon="-3.11611">
        <ele>105</ele>
        <time>2024-06-03T16:47:00Z</time>
      </trkpt>
      <trkpt lat="48.57269" lon="-3.11636">
        <ele>106</ele>
        <time>2024-06-03T16:47:06Z</time>
      </trkpt>
      <trkpt lat="48.57275" lon="-3.11627">
        <ele>106</ele>
        <time>2024-06-03T16:47:08Z</time>
      </trkpt>
      <trkpt lat="48.57259" lon="-3.11601">
        <ele>105</ele>
        <time>2024-06-03T16:47:13Z</time>
      </trkpt>
      <trkpt lat="48.57293" lon="-3.11616">
        <ele>108</ele>
        <time>2024-06-03T16:47:22Z</time>
      </trkpt>
      <trkpt lat="48.57311" lon="-3.11635">
        <ele>109</ele>
        <time>2024-06-03T16:47:27Z</time>
      </trkpt>
      <trkpt lat="48.57317" lon="-3.11661">
        <ele>108</ele>
        <time>2024-06-03T16:47:31Z</time>
      </trkpt>
      <trkpt lat="48.57333" lon="-3.11698">
        <ele>106</ele>
        <time>2024-06-03T16:47:38Z</time>
      </trkpt>
      <trkpt lat="48.57329" lon="-3.11722">
        <ele>104</ele>
        <time>2024-06-03T16:47:42Z</time>
      </trkpt>
      <trkpt lat="48.57331" lon="-3.11748">
        <ele>102</ele>
        <time>2024-06-03T16:47:46Z</time>
      </trkpt>
      <trkpt lat="48.57324" lon="-3.11777">
        <ele>101</ele>
        <time>2024-06-03T16:47:51Z</time>
      </trkpt>
      <trkpt lat="48.57307" lon="-3.11808">
        <ele>100</ele>
        <time>2024-06-03T16:47:57Z</time>
      </trkpt>
      <trkpt lat="48.57274" lon="-3.11829">
        <ele>103</ele>
        <time>2024-06-03T16:48:05Z</time>
      </trkpt>
      <trkpt lat="48.57264" lon="-3.11741">
        <ele>104</ele>
        <time>2024-06-03T16:48:19Z</time>
      </trkpt>
      <trkpt lat="48.57241" lon="-3.11686">
        <ele>105</ele>
        <time>2024-06-03T16:48:29Z</time>
      </trkpt>
      <trkpt lat="48.57215" lon="-3.11638">
        <ele>105</ele>
        <time>2024-06-03T16:48:39Z</time>
      </trkpt>
      <trkpt lat="48.57185" lon="-3.11618">
        <ele>105</ele>
        <time>2024-06-03T16:48:46Z</time>
      </trkpt>
      <trkpt lat="48.57165" lon="-3.11643">
        <ele>106</ele>
        <time>2024-06-03T16:48:52Z</time>
      </trkpt>
      <trkpt lat="48.57166" lon="-3.1175">
        <ele>111</ele>
        <time>2024-06-03T16:49:09Z</time>
      </trkpt>
      <trkpt lat="48.57153" lon="-3.11851">
        <ele>111</ele>
        <time>2024-06-03T16:49:25Z</time>
      </trkpt>
      <trkpt lat="48.57042" lon="-3.12164">
        <ele>121</ele>
        <time>2024-06-03T16:50:20Z</time>
      </trkpt>
      <trkpt lat="48.57051" lon="-3.1232">
        <ele>124</ele>
        <time>2024-06-03T16:50:44Z</time>
      </trkpt>
      <trkpt lat="48.5708" lon="-3.1244">
        <ele>125</ele>
        <time>2024-06-03T16:51:04Z</time>
      </trkpt>
      <trkpt lat="48.57169" lon="-3.1205">
        <ele>114</ele>
        <time>2024-06-03T16:52:07Z</time>
      </trkpt>
      <trkpt lat="48.57228" lon="-3.11895">
        <ele>109</ele>
        <time>2024-06-03T16:52:35Z</time>
      </trkpt>
      <trkpt lat="48.57263" lon="-3.11846">
        <ele>104</ele>
        <time>2024-06-03T16:52:46Z</time>
      </trkpt>
      <trkpt lat="48.57358" lon="-3.12103">
        <ele>104</ele>
        <time>2024-06-03T16:53:32Z</time>
      </trkpt>
      <trkpt lat="48.57411" lon="-3.12208">
        <ele>99</ele>
        <time>2024-06-03T16:53:52Z</time>
      </trkpt>
      <trkpt lat="48.57424" lon="-3.12223">
        <ele>99</ele>
        <time>2024-06-03T16:53:56Z</time>
      </trkpt>
      <trkpt lat="48.5745" lon="-3.12239">
        <ele>98</ele>
        <time>2024-06-03T16:54:02Z</time>
      </trkpt>
      <trkpt lat="48.57446" lon="-3.12305">
        <ele>101</ele>
        <time>2024-06-03T16:54:13Z</time>
      </trkpt>
      <trkpt lat="48.57473" lon="-3.12334">
        <ele>101</ele>
        <time>2024-06-03T16:54:20Z</time>
      </trkpt>
      <trkpt lat="48.57506" lon="-3.12361">
        <ele>100</ele>
        <time>2024-06-03T16:54:29Z</time>
      </trkpt>
      <trkpt lat="48.57509" lon="-3.12392">
        <ele>102</ele>
        <time>2024-06-03T16:54:34Z</time>
      </trkpt>
      <trkpt lat="48.57518" lon="-3.12397">
        <ele>102</ele>
        <time>2024-06-03T16:54:36Z</time>
      </trkpt>
      <trkpt lat="48.57552" lon="-3.1233">
        <ele>98</ele>
        <time>2024-06-03T16:54:49Z</time>
      </trkpt>
      <trkpt lat="48.57669" lon="-3.12291">
        <ele>91</ele>
        <time>2024-06-03T16:55:17Z</time>
      </trkpt>
      <trkpt lat="48.57742" lon="-3.12299">
        <ele>90</ele>
        <time>2024-06-03T16:55:34Z</time>
      </trkpt>
      <trkpt lat="48.57773" lon="-3.12266">
        <ele>94</ele>
        <time>2024-06-03T16:55:43Z</time>
      </trkpt>
      <trkpt lat="48.57687" lon="-3.12176">
        <ele>99</ele>
        <time>2024-06-03T16:56:08Z</time>
      </trkpt>
      <trkpt lat="48.57753" lon="-3.1199">
        <ele>106</ele>
        <time>2024-06-03T16:56:40Z</time>
      </trkpt>
      <trkpt lat="48.57856" lon="-3.11873">
        <ele>106</ele>
        <time>2024-06-03T16:57:10Z</time>
      </trkpt>
      <trkpt lat="48.57899" lon="-3.1188">
        <ele>105</ele>
        <time>2024-06-03T16:57:20Z</time>
      </trkpt>
      <trkpt lat="48.57934" lon="-3.11945">
        <ele>101</ele>
        <time>2024-06-03T16:57:33Z</time>
      </trkpt>
      <trkpt lat="48.58067" lon="-3.12012">
        <ele>100</ele>
        <time>2024-06-03T16:58:06Z</time>
      </trkpt>
      <trkpt lat="48.58111" lon="-3.11988">
        <ele>100</ele>
        <time>2024-06-03T16:58:17Z</time>
      </trkpt>
      <trkpt lat="48.58211" lon="-3.12012">
        <ele>99</ele>
        <time>2024-06-03T16:58:41Z</time>
      </trkpt>
      <trkpt lat="48.58211" lon="-3.1204">
        <ele>99</ele>
        <time>2024-06-03T16:58:45Z</time>
      </trkpt>
      <trkpt lat="48.58133" lon="-3.12185">
        <ele>100</ele>
        <time>2024-06-03T16:59:14Z</time>
      </trkpt>
      <trkpt lat="48.58136" lon="-3.12202">
        <ele>100</ele>
        <time>2024-06-03T16:59:17Z</time>
      </trkpt>
      <trkpt lat="48.58125" lon="-3.12227">
        <ele>99</ele>
        <time>2024-06-03T16:59:21Z</time>
      </trkpt>
      <trkpt lat="48.58102" lon="-3.12227">
        <ele>99</ele>
        <time>2024-06-03T16:59:27Z</time>
      </trkpt>
      <trkpt lat="48.5801" lon="-3.12425">
        <ele>88</ele>
        <time>2024-06-03T17:00:04Z</time>
      </trkpt>
      <trkpt lat="48.57964" lon="-3.12461">
        <ele>87</ele>
        <time>2024-06-03T17:00:16Z</time>
      </trkpt>
      <trkpt lat="48.57914" lon="-3.12452">
        <ele>89</ele>
        <time>2024-06-03T17:00:28Z</time>
      </trkpt>
      <trkpt lat="48.57883" lon="-3.12546">
        <ele>94</ele>
        <time>2024-06-03T17:00:44Z</time>
      </trkpt>
      <trkpt lat="48.58163" lon="-3.12685">
        <ele>106</ele>
        <time>2024-06-03T17:01:53Z</time>
      </trkpt>
      <trkpt lat="48.58231" lon="-3.12847">
        <ele>112</ele>
        <time>2024-06-03T17:02:22Z</time>
      </trkpt>
      <trkpt lat="48.5833" lon="-3.13334">
        <ele>118</ele>
        <time>2024-06-03T17:03:41Z</time>
      </trkpt>
      <trkpt lat="48.58348" lon="-3.13408">
        <ele>117</ele>
        <time>2024-06-03T17:03:53Z</time>
      </trkpt>
      <trkpt lat="48.58382" lon="-3.1345">
        <ele>117</ele>
        <time>2024-06-03T17:04:04Z</time>
      </trkpt>
      <trkpt lat="48.58284" lon="-3.13488">
        <ele>121</ele>
        <time>2024-06-03T17:04:27Z</time>
      </trkpt>
      <trkpt lat="48.58149" lon="-3.13627">
        <ele>126</ele>
        <time>2024-06-03T17:05:05Z</time>
      </trkpt>
      <trkpt lat="48.58081" lon="-3.13759">
        <ele>129</ele>
        <time>2024-06-03T17:05:31Z</time>
      </trkpt>
      <trkpt lat="48.58076" lon="-3.13901">
        <ele>131</ele>
        <time>2024-06-03T17:05:53Z</time>
      </trkpt>
      <trkpt lat="48.58027" lon="-3.13982">
        <ele>130</ele>
        <time>2024-06-03T17:06:10Z</time>
      </trkpt>
      <trkpt lat="48.57873" lon="-3.141">
        <ele>133</ele>
        <time>2024-06-03T17:06:50Z</time>
      </trkpt>
      <trkpt lat="48.57892" lon="-3.14226">
        <ele>131</ele>
        <time>2024-06-03T17:07:10Z</time>
      </trkpt>
      <trkpt lat="48.57665" lon="-3.1428">
        <ele>129</ele>
        <time>2024-06-03T17:08:04Z</time>
      </trkpt>
      <trkpt lat="48.57535" lon="-3.14342">
        <ele>130</ele>
        <time>2024-06-03T17:08:36Z</time>
      </trkpt>
      <trkpt lat="48.57524" lon="-3.14402">
        <ele>130</ele>
        <time>2024-06-03T17:08:46Z</time>
      </trkpt>
      <trkpt lat="48.5778" lon="-3.14571">
        <ele>128</ele>
        <time>2024-06-03T17:09:51Z</time>
      </trkpt>
      <trkpt lat="48.57794" lon="-3.1465">
        <ele>126</ele>
        <time>2024-06-03T17:10:03Z</time>
      </trkpt>
      <trkpt lat="48.57798" lon="-3.14693">
        <ele>125</ele>
        <time>2024-06-03T17:10:10Z</time>
      </trkpt>
      <trkpt lat="48.57827" lon="-3.14722">
        <ele>124</ele>
        <time>2024-06-03T17:10:18Z</time>
      </trkpt>
      <trkpt lat="48.57788" lon="-3.14884">
        <ele>125</ele>
        <time>2024-06-03T17:10:45Z</time>
      </trkpt>
      <trkpt lat="48.57861" lon="-3.15009">
        <ele>121</ele>
        <time>2024-06-03T17:11:11Z</time>
      </trkpt>
      <trkpt lat="48.57884" lon="-3.15012">
        <ele>121</ele>
        <time>2024-06-03T17:11:16Z</time>
      </trkpt>
      <trkpt lat="48.57913" lon="-3.15136">
        <ele>119</ele>
        <time>2024-06-03T17:11:36Z</time>
      </trkpt>
      <trkpt lat="48.57941" lon="-3.15197">
        <ele>118</ele>
        <time>2024-06-03T17:11:48Z</time>
      </trkpt>
      <trkpt lat="48.57998" lon="-3.15294">
        <ele>116</ele>
        <time>2024-06-03T17:12:08Z</time>
      </trkpt>
      <trkpt lat="48.58046" lon="-3.15314">
        <ele>115</ele>
        <time>2024-06-03T17:12:20Z</time>
      </trkpt>
      <trkpt lat="48.58021" lon="-3.15382">
        <ele>115</ele>
        <time>2024-06-03T17:12:32Z</time>
      </trkpt>
      <trkpt lat="48.5802" lon="-3.15422">
        <ele>115</ele>
        <time>2024-06-03T17:12:38Z</time>
      </trkpt>
      <trkpt lat="48.57932" lon="-3.15455">
        <ele>115</ele>
        <time>2024-06-03T17:12:59Z</time>
      </trkpt>
      <trkpt lat="48.57767" lon="-3.15451">
        <ele>119</ele>
        <time>2024-06-03T17:13:37Z</time>
      </trkpt>
      <trkpt lat="48.57587" lon="-3.15355">
        <ele>121</ele>
        <time>2024-06-03T17:14:22Z</time>
      </trkpt>
      <trkpt lat="48.5759" lon="-3.15619">
        <ele>118</ele>
        <time>2024-06-03T17:15:03Z</time>
      </trkpt>
      <trkpt lat="48.57624" lon="-3.15651">
        <ele>117</ele>
        <time>2024-06-03T17:15:12Z</time>
      </trkpt>
      <trkpt lat="48.57626" lon="-3.15843">
        <ele>110</ele>
        <time>2024-06-03T17:15:42Z</time>
      </trkpt>
      <trkpt lat="48.57691" lon="-3.15862">
        <ele>109</ele>
        <time>2024-06-03T17:15:57Z</time>
      </trkpt>
      <trkpt lat="48.57825" lon="-3.15942">
        <ele>110</ele>
        <time>2024-06-03T17:16:31Z</time>
      </trkpt>
      <trkpt lat="48.57866" lon="-3.15889">
        <ele>113</ele>
        <time>2024-06-03T17:16:44Z</time>
      </trkpt>
      <trkpt lat="48.58059" lon="-3.15918">
        <ele>110</ele>
        <time>2024-06-03T17:17:29Z</time>
      </trkpt>
      <trkpt lat="48.58098" lon="-3.16034">
        <ele>110</ele>
        <time>2024-06-03T17:17:49Z</time>
      </trkpt>
      <trkpt lat="48.58435" lon="-3.15844">
        <ele>102</ele>
        <time>2024-06-03T17:19:13Z</time>
      </trkpt>
      <trkpt lat="48.58439" lon="-3.15788">
        <ele>100</ele>
        <time>2024-06-03T17:19:22Z</time>
      </trkpt>
      <trkpt lat="48.58391" lon="-3.15579">
        <ele>104</ele>
        <time>2024-06-03T17:19:56Z</time>
      </trkpt>
      <trkpt lat="48.58406" lon="-3.15554">
        <ele>102</ele>
        <time>2024-06-03T17:20:01Z</time>
      </trkpt>
      <trkpt lat="48.58488" lon="-3.15604">
        <ele>94</ele>
        <time>2024-06-03T17:20:22Z</time>
      </trkpt>
      <trkpt lat="48.58544" lon="-3.1553">
        <ele>82</ele>
        <time>2024-06-03T17:20:39Z</time>
      </trkpt>
      <trkpt lat="48.58569" lon="-3.15386">
        <ele>78</ele>
        <time>2024-06-03T17:21:02Z</time>
      </trkpt>
      <trkpt lat="48.58595" lon="-3.15336">
        <ele>74</ele>
        <time>2024-06-03T17:21:12Z</time>
      </trkpt>
      <trkpt lat="48.58644" lon="-3.15083">
        <ele>71</ele>
        <time>2024-06-03T17:21:53Z</time>
      </trkpt>
      <trkpt lat="48.58723" lon="-3.14955">
        <ele>76</ele>
        <time>2024-06-03T17:22:20Z</time>
      </trkpt>
      <trkpt lat="48.58777" lon="-3.14913">
        <ele>74</ele>
        <time>2024-06-03T17:22:34Z</time>
      </trkpt>
      <trkpt lat="48.58811" lon="-3.14863">
        <ele>79</ele>
        <time>2024-06-03T17:22:45Z</time>
      </trkpt>
      <trkpt lat="48.59142" lon="-3.14742">
        <ele>66</ele>
        <time>2024-06-03T17:24:04Z</time>
      </trkpt>
      <trkpt lat="48.59257" lon="-3.14738">
        <ele>62</ele>
        <time>2024-06-03T17:24:31Z</time>
      </trkpt>
      <trkpt lat="48.59375" lon="-3.14773">
        <ele>63</ele>
        <time>2024-06-03T17:24:59Z</time>
      </trkpt>
      <trkpt lat="48.59399" lon="-3.14728">
        <ele>66</ele>
        <time>2024-06-03T17:25:08Z</time>
      </trkpt>
      <trkpt lat="48.59476" lon="-3.14798">
        <ele>64</ele>
        <time>2024-06-03T17:25:29Z</time>
      </trkpt>
      <trkpt lat="48.59467" lon="-3.14841">
        <ele>67</ele>
        <time>2024-06-03T17:25:36Z</time>
      </trkpt>
      <trkpt lat="48.59387" lon="-3.14893">
        <ele>66</ele>
        <time>2024-06-03T17:25:57Z</time>
      </trkpt>
      <trkpt lat="48.5923" lon="-3.14812">
        <ele>59</ele>
        <time>2024-06-03T17:26:35Z</time>
      </trkpt>
      <trkpt lat="48.59073" lon="-3.14823">
        <ele>64</ele>
        <time>2024-06-03T17:27:12Z</time>
      </trkpt>
      <trkpt lat="48.58987" lon="-3.14877">
        <ele>61</ele>
        <time>2024-06-03T17:27:34Z</time>
      </trkpt>
      <trkpt lat="48.58977" lon="-3.15076">
        <ele>69</ele>
        <time>2024-06-03T17:28:05Z</time>
      </trkpt>
      <trkpt lat="48.59005" lon="-3.15105">
        <ele>72</ele>
        <time>2024-06-03T17:28:13Z</time>
      </trkpt>
      <trkpt lat="48.59163" lon="-3.15094">
        <ele>80</ele>
        <time>2024-06-03T17:28:49Z</time>
      </trkpt>
      <trkpt lat="48.59206" lon="-3.15195">
        <ele>87</ele>
        <time>2024-06-03T17:29:08Z</time>
      </trkpt>
      <trkpt lat="48.59123" lon="-3.15525">
        <ele>102</ele>
        <time>2024-06-03T17:30:03Z</time>
      </trkpt>
      <trkpt lat="48.59104" lon="-3.15626">
        <ele>103</ele>
        <time>2024-06-03T17:30:19Z</time>
      </trkpt>
      <trkpt lat="48.58964" lon="-3.1555">
        <ele>101</ele>
        <time>2024-06-03T17:30:53Z</time>
      </trkpt>
      <trkpt lat="48.58925" lon="-3.15577">
        <ele>99</ele>
        <time>2024-06-03T17:31:04Z</time>
      </trkpt>
      <trkpt lat="48.58897" lon="-3.15557">
        <ele>99</ele>
        <time>2024-06-03T17:31:11Z</time>
      </trkpt>
      <trkpt lat="48.58883" lon="-3.15579">
        <ele>99</ele>
        <time>2024-06-03T17:31:15Z</time>
      </trkpt>
      <trkpt lat="48.58807" lon="-3.15868">
        <ele>112</ele>
        <time>2024-06-03T17:32:03Z</time>
      </trkpt>
      <trkpt lat="48.5882" lon="-3.16001">
        <ele>119</ele>
        <time>2024-06-03T17:32:24Z</time>
      </trkpt>
      <trkpt lat="48.58813" lon="-3.16048">
        <ele>119</ele>
        <time>2024-06-03T17:32:32Z</time>
      </trkpt>
      <trkpt lat="48.58734" lon="-3.16115">
        <ele>115</ele>
        <time>2024-06-03T17:32:53Z</time>
      </trkpt>
      <trkpt lat="48.58639" lon="-3.16229">
        <ele>108</ele>
        <time>2024-06-03T17:33:21Z</time>
      </trkpt>
      <trkpt lat="48.58592" lon="-3.16396">
        <ele>104</ele>
        <time>2024-06-03T17:33:49Z</time>
      </trkpt>
      <trkpt lat="48.58753" lon="-3.16709">
        <ele>119</ele>
        <time>2024-06-03T17:34:50Z</time>
      </trkpt>
      <trkpt lat="48.58803" lon="-3.16768">
        <ele>121</ele>
        <time>2024-06-03T17:35:05Z</time>
      </trkpt>
      <trkpt lat="48.5885" lon="-3.16779">
        <ele>123</ele>
        <time>2024-06-03T17:35:16Z</time>
      </trkpt>
      <trkpt lat="48.58932" lon="-3.16752">
        <ele>128</ele>
        <time>2024-06-03T17:35:36Z</time>
      </trkpt>
      <trkpt lat="48.58914" lon="-3.17041">
        <ele>128</ele>
        <time>2024-06-03T17:36:21Z</time>
      </trkpt>
      <trkpt lat="48.59068" lon="-3.17172">
        <ele>132</ele>
        <time>2024-06-03T17:37:02Z</time>
      </trkpt>
      <trkpt lat="48.59265" lon="-3.17293">
        <ele>129</ele>
        <time>2024-06-03T17:37:52Z</time>
      </trkpt>
      <trkpt lat="48.59499" lon="-3.1738">
        <ele>118</ele>
        <time>2024-06-03T17:38:48Z</time>
      </trkpt>
      <trkpt lat="48.59628" lon="-3.17425">
        <ele>116</ele>
        <time>2024-06-03T17:39:19Z</time>
      </trkpt>
      <trkpt lat="48.59686" lon="-3.17463">
        <ele>117</ele>
        <time>2024-06-03T17:39:34Z</time>
      </trkpt>
      <trkpt lat="48.59737" lon="-3.17539">
        <ele>118</ele>
        <time>2024-06-03T17:39:50Z</time>
      </trkpt>
      <trkpt lat="48.59844" lon="-3.17418">
        <ele>121</ele>
        <time>2024-06-03T17:40:22Z</time>
      </trkpt>
      <trkpt lat="48.60025" lon="-3.17324">
        <ele>120</ele>
        <time>2024-06-03T17:41:06Z</time>
      </trkpt>
      <trkpt lat="48.60186" lon="-3.1732">
        <ele>122</ele>
        <time>2024-06-03T17:41:44Z</time>
      </trkpt>
      <trkpt lat="48.60214" lon="-3.17315">
        <ele>121</ele>
        <time>2024-06-03T17:41:51Z</time>
      </trkpt>
      <trkpt lat="48.60198" lon="-3.1725">
        <ele>119</ele>
        <time>2024-06-03T17:42:01Z</time>
      </trkpt>
      <trkpt lat="48.60228" lon="-3.17046">
        <ele>119</ele>
        <time>2024-06-03T17:42:33Z</time>
      </trkpt>
      <trkpt lat="48.60265" lon="-3.17037">
        <ele>119</ele>
        <time>2024-06-03T17:42:42Z</time>
      </trkpt>
      <trkpt lat="48.6029" lon="-3.16967">
        <ele>120</ele>
        <time>2024-06-03T17:42:55Z</time>
      </trkpt>
      <trkpt lat="48.60268" lon="-3.16891">
        <ele>120</ele>
        <time>2024-06-03T17:43:07Z</time>
      </trkpt>
      <trkpt lat="48.60304" lon="-3.16775">
        <ele>119</ele>
        <time>2024-06-03T17:43:27Z</time>
      </trkpt>
      <trkpt lat="48.6027" lon="-3.16701">
        <ele>118</ele>
        <time>2024-06-03T17:43:41Z</time>
      </trkpt>
      <trkpt lat="48.60294" lon="-3.16573">
        <ele>114</ele>
        <time>2024-06-03T17:44:02Z</time>
      </trkpt>
      <trkpt lat="48.60135" lon="-3.16537">
        <ele>112</ele>
        <time>2024-06-03T17:44:39Z</time>
      </trkpt>
      <trkpt lat="48.60169" lon="-3.16274">
        <ele>105</ele>
        <time>2024-06-03T17:45:21Z</time>
      </trkpt>
      <trkpt lat="48.60196" lon="-3.16151">
        <ele>103</ele>
        <time>2024-06-03T17:45:41Z</time>
      </trkpt>
      <trkpt lat="48.60189" lon="-3.16086">
        <ele>102</ele>
        <time>2024-06-03T17:45:51Z</time>
      </trkpt>
      <trkpt lat="48.60126" lon="-3.15987">
        <ele>102</ele>
        <time>2024-06-03T17:46:12Z</time>
      </trkpt>
      <trkpt lat="48.60198" lon="-3.15958">
        <ele>101</ele>
        <time>2024-06-03T17:46:29Z</time>
      </trkpt>
      <trkpt lat="48.60325" lon="-3.15852">
        <ele>101</ele>
        <time>2024-06-03T17:47:03Z</time>
      </trkpt>
      <trkpt lat="48.60362" lon="-3.15855">
        <ele>102</ele>
        <time>2024-06-03T17:47:12Z</time>
      </trkpt>
      <trkpt lat="48.60452" lon="-3.15817">
        <ele>104</ele>
        <time>2024-06-03T17:47:34Z</time>
      </trkpt>
      <trkpt lat="48.60493" lon="-3.15751">
        <ele>105</ele>
        <time>2024-06-03T17:47:48Z</time>
      </trkpt>
      <trkpt lat="48.60634" lon="-3.15758">
        <ele>107</ele>
        <time>2024-06-03T17:48:21Z</time>
      </trkpt>
      <trkpt lat="48.60719" lon="-3.15718">
        <ele>107</ele>
        <time>2024-06-03T17:48:41Z</time>
      </trkpt>
      <trkpt lat="48.60723" lon="-3.15561">
        <ele>107</ele>
        <time>2024-06-03T17:49:06Z</time>
      </trkpt>
      <trkpt lat="48.60735" lon="-3.15493">
        <ele>107</ele>
        <time>2024-06-03T17:49:17Z</time>
      </trkpt>
      <trkpt lat="48.60762" lon="-3.15442">
        <ele>105</ele>
        <time>2024-06-03T17:49:27Z</time>
      </trkpt>
      <trkpt lat="48.60767" lon="-3.1537">
        <ele>104</ele>
        <time>2024-06-03T17:49:38Z</time>
      </trkpt>
      <trkpt lat="48.60801" lon="-3.1537">
        <ele>103</ele>
        <time>2024-06-03T17:49:46Z</time>
      </trkpt>
      <trkpt lat="48.60811" lon="-3.15317">
        <ele>103</ele>
        <time>2024-06-03T17:49:54Z</time>
      </trkpt>
      <trkpt lat="48.60796" lon="-3.15263">
        <ele>103</ele>
        <time>2024-06-03T17:50:03Z</time>
      </trkpt>
      <trkpt lat="48.60805" lon="-3.15209">
        <ele>103</ele>
        <time>2024-06-03T17:50:12Z</time>
      </trkpt>
      <trkpt lat="48.60847" lon="-3.15105">
        <ele>100</ele>
        <time>2024-06-03T17:50:31Z</time>
      </trkpt>
      <trkpt lat="48.60862" lon="-3.15077">
        <ele>99</ele>
        <time>2024-06-03T17:50:36Z</time>
      </trkpt>
      <trkpt lat="48.60953" lon="-3.15161">
        <ele>96</ele>
        <time>2024-06-03T17:51:01Z</time>
      </trkpt>
      <trkpt lat="48.60994" lon="-3.15179">
        <ele>96</ele>
        <time>2024-06-03T17:51:11Z</time>
      </trkpt>
      <trkpt lat="48.61039" lon="-3.15106">
        <ele>95</ele>
        <time>2024-06-03T17:51:27Z</time>
      </trkpt>
      <trkpt lat="48.6108" lon="-3.15097">
        <ele>95</ele>
        <time>2024-06-03T17:51:36Z</time>
      </trkpt>
      <trkpt lat="48.61105" lon="-3.1508">
        <ele>95</ele>
        <time>2024-06-03T17:51:43Z</time>
      </trkpt>
      <trkpt lat="48.61085" lon="-3.15011">
        <ele>92</ele>
        <time>2024-06-03T17:51:54Z</time>
      </trkpt>
      <trkpt lat="48.61059" lon="-3.14953">
        <ele>89</ele>
        <time>2024-06-03T17:52:05Z</time>
      </trkpt>
      <trkpt lat="48.61009" lon="-3.14901">
        <ele>86</ele>
        <time>2024-06-03T17:52:19Z</time>
      </trkpt>
      <trkpt lat="48.61021" lon="-3.14821">
        <ele>81</ele>
        <time>2024-06-03T17:52:32Z</time>
      </trkpt>
      <trkpt lat="48.61022" lon="-3.14717">
        <ele>74</ele>
        <time>2024-06-03T17:52:48Z</time>
      </trkpt>
      <trkpt lat="48.60971" lon="-3.14585">
        <ele>58</ele>
        <time>2024-06-03T17:53:12Z</time>
      </trkpt>
      <trkpt lat="48.61168" lon="-3.14579">
        <ele>53</ele>
        <time>2024-06-03T17:53:58Z</time>
      </trkpt>
      <trkpt lat="48.61223" lon="-3.14598">
        <ele>56</ele>
        <time>2024-06-03T17:54:11Z</time>
      </trkpt>
      <trkpt lat="48.61298" lon="-3.14531">
        <ele>59</ele>
        <time>2024-06-03T17:54:31Z</time>
      </trkpt>
      <trkpt lat="48.613" lon="-3.1446">
        <ele>57</ele>
        <time>2024-06-03T17:54:42Z</time>
      </trkpt>
      <trkpt lat="48.61166" lon="-3.14269">
        <ele>53</ele>
        <time>2024-06-03T17:55:25Z</time>
      </trkpt>
      <trkpt lat="48.61081" lon="-3.14251">
        <ele>53</ele>
        <time>2024-06-03T17:55:45Z</time>
      </trkpt>
      <trkpt lat="48.60827" lon="-3.14251">
        <ele>61</ele>
        <time>2024-06-03T17:56:44Z</time>
      </trkpt>
      <trkpt lat="48.60668" lon="-3.143">
        <ele>74</ele>
        <time>2024-06-03T17:57:22Z</time>
      </trkpt>
      <trkpt lat="48.60702" lon="-3.14356">
        <ele>70</ele>
        <time>2024-06-03T17:57:34Z</time>
      </trkpt>
      <trkpt lat="48.60852" lon="-3.14392">
        <ele>56</ele>
        <time>2024-06-03T17:58:10Z</time>
      </trkpt>
      <trkpt lat="48.60916" lon="-3.14439">
        <ele>52</ele>
        <time>2024-06-03T17:58:26Z</time>
      </trkpt>
      <trkpt lat="48.60838" lon="-3.14506">
        <ele>54</ele>
        <time>2024-06-03T17:58:47Z</time>
      </trkpt>
      <trkpt lat="48.60713" lon="-3.1459">
        <ele>59</ele>
        <time>2024-06-03T17:59:19Z</time>
      </trkpt>
      <trkpt lat="48.60636" lon="-3.14607">
        <ele>62</ele>
        <time>2024-06-03T17:59:37Z</time>
      </trkpt>
      <trkpt lat="48.60561" lon="-3.1459">
        <ele>63</ele>
        <time>2024-06-03T17:59:55Z</time>
      </trkpt>
      <trkpt lat="48.60496" lon="-3.14545">
        <ele>67</ele>
        <time>2024-06-03T18:00:12Z</time>
      </trkpt>
      <trkpt lat="48.60441" lon="-3.14536">
        <ele>67</ele>
        <time>2024-06-03T18:00:25Z</time>
      </trkpt>
      <trkpt lat="48.60394" lon="-3.14536">
        <ele>69</ele>
        <time>2024-06-03T18:00:36Z</time>
      </trkpt>
      <trkpt lat="48.60363" lon="-3.14608">
        <ele>68</ele>
        <time>2024-06-03T18:00:49Z</time>
      </trkpt>
      <trkpt lat="48.60326" lon="-3.14681">
        <ele>65</ele>
        <time>2024-06-03T18:01:03Z</time>
      </trkpt>
      <trkpt lat="48.60134" lon="-3.14787">
        <ele>63</ele>
        <time>2024-06-03T18:01:51Z</time>
      </trkpt>
      <trkpt lat="48.60015" lon="-3.1474">
        <ele>69</ele>
        <time>2024-06-03T18:02:19Z</time>
      </trkpt>
      <trkpt lat="48.59976" lon="-3.1474">
        <ele>69</ele>
        <time>2024-06-03T18:02:29Z</time>
      </trkpt>
      <trkpt lat="48.59866" lon="-3.14662">
        <ele>63</ele>
        <time>2024-06-03T18:02:57Z</time>
      </trkpt>
      <trkpt lat="48.59821" lon="-3.14592">
        <ele>70</ele>
        <time>2024-06-03T18:03:12Z</time>
      </trkpt>
      <trkpt lat="48.59721" lon="-3.14561">
        <ele>73</ele>
        <time>2024-06-03T18:03:36Z</time>
      </trkpt>
      <trkpt lat="48.59626" lon="-3.14612">
        <ele>71</ele>
        <time>2024-06-03T18:03:59Z</time>
      </trkpt>
      <trkpt lat="48.59548" lon="-3.14744">
        <ele>65</ele>
        <time>2024-06-03T18:04:27Z</time>
      </trkpt>
      <trkpt lat="48.59531" lon="-3.14765">
        <ele>65</ele>
        <time>2024-06-03T18:04:32Z</time>
      </trkpt>
      <trkpt lat="48.59476" lon="-3.14785">
        <ele>64</ele>
        <time>2024-06-03T18:04:45Z</time>
      </trkpt>
      <trkpt lat="48.59396" lon="-3.147">
        <ele>69</ele>
        <time>2024-06-03T18:05:08Z</time>
      </trkpt>
      <trkpt lat="48.5935" lon="-3.14614">
        <ele>78</ele>
        <time>2024-06-03T18:05:25Z</time>
      </trkpt>
      <trkpt lat="48.59216" lon="-3.14406">
        <ele>89</ele>
        <time>2024-06-03T18:06:10Z</time>
      </trkpt>
      <trkpt lat="48.59209" lon="-3.14211">
        <ele>95</ele>
        <time>2024-06-03T18:06:40Z</time>
      </trkpt>
      <trkpt lat="48.59129" lon="-3.14222">
        <ele>91</ele>
        <time>2024-06-03T18:06:59Z</time>
      </trkpt>
      <trkpt lat="48.58982" lon="-3.14305">
        <ele>91</ele>
        <time>2024-06-03T18:07:35Z</time>
      </trkpt>
      <trkpt lat="48.58908" lon="-3.14192">
        <ele>96</ele>
        <time>2024-06-03T18:08:00Z</time>
      </trkpt>
      <trkpt lat="48.5882" lon="-3.14204">
        <ele>102</ele>
        <time>2024-06-03T18:08:21Z</time>
      </trkpt>
      <trkpt lat="48.58797" lon="-3.14195">
        <ele>103</ele>
        <time>2024-06-03T18:08:26Z</time>
      </trkpt>
      <trkpt lat="48.58795" lon="-3.14159">
        <ele>103</ele>
        <time>2024-06-03T18:08:32Z</time>
      </trkpt>
      <trkpt lat="48.5878" lon="-3.14151">
        <ele>104</ele>
        <time>2024-06-03T18:08:35Z</time>
      </trkpt>
      <trkpt lat="48.58747" lon="-3.14171">
        <ele>106</ele>
        <time>2024-06-03T18:08:44Z</time>
      </trkpt>
      <trkpt lat="48.58732" lon="-3.14194">
        <ele>108</ele>
        <time>2024-06-03T18:08:49Z</time>
      </trkpt>
      <trkpt lat="48.58713" lon="-3.14194">
        <ele>110</ele>
        <time>2024-06-03T18:08:53Z</time>
      </trkpt>
      <trkpt lat="48.58696" lon="-3.14145">
        <ele>111</ele>
        <time>2024-06-03T18:09:02Z</time>
      </trkpt>
      <trkpt lat="48.5869" lon="-3.14099">
        <ele>112</ele>
        <time>2024-06-03T18:09:09Z</time>
      </trkpt>
      <trkpt lat="48.58675" lon="-3.14046">
        <ele>113</ele>
        <time>2024-06-03T18:09:18Z</time>
      </trkpt>
      <trkpt lat="48.58663" lon="-3.14044">
        <ele>114</ele>
        <time>2024-06-03T18:09:21Z</time>
      </trkpt>
      <trkpt lat="48.58653" lon="-3.14018">
        <ele>115</ele>
        <time>2024-06-03T18:09:25Z</time>
      </trkpt>
      <trkpt lat="48.58652" lon="-3.13797">
        <ele>112</ele>
        <time>2024-06-03T18:09:59Z</time>
      </trkpt>
      <trkpt lat="48.58639" lon="-3.13761">
        <ele>113</ele>
        <time>2024-06-03T18:10:06Z</time>
      </trkpt>
      <trkpt lat="48.58632" lon="-3.13682">
        <ele>111</ele>
        <time>2024-06-03T18:10:18Z</time>
      </trkpt>
      <trkpt lat="48.58628" lon="-3.13571">
        <ele>110</ele>
        <time>2024-06-03T18:10:35Z</time>
      </trkpt>
      <trkpt lat="48.58637" lon="-3.13497">
        <ele>110</ele>
        <time>2024-06-03T18:10:47Z</time>
      </trkpt>
      <trkpt lat="48.58665" lon="-3.13477">
        <ele>109</ele>
        <time>2024-06-03T18:10:54Z</time>
      </trkpt>
      <trkpt lat="48.58671" lon="-3.13427">
        <ele>110</ele>
        <time>2024-06-03T18:11:02Z</time>
      </trkpt>
      <trkpt lat="48.58662" lon="-3.13405">
        <ele>110</ele>
        <time>2024-06-03T18:11:06Z</time>
      </trkpt>
      <trkpt lat="48.58668" lon="-3.13338">
        <ele>106</ele>
        <time>2024-06-03T18:11:16Z</time>
      </trkpt>
      <trkpt lat="48.58631" lon="-3.1332">
        <ele>107</ele>
        <time>2024-06-03T18:11:26Z</time>
      </trkpt>
      <trkpt lat="48.58638" lon="-3.13299">
        <ele>106</ele>
        <time>2024-06-03T18:11:29Z</time>
      </trkpt>
      <trkpt lat="48.58673" lon="-3.13266">
        <ele>103</ele>
        <time>2024-06-03T18:11:39Z</time>
      </trkpt>
      <trkpt lat="48.58709" lon="-3.13259">
        <ele>101</ele>
        <time>2024-06-03T18:11:47Z</time>
      </trkpt>
      <trkpt lat="48.58743" lon="-3.13181">
        <ele>98</ele>
        <time>2024-06-03T18:12:02Z</time>
      </trkpt>
      <trkpt lat="48.58759" lon="-3.13098">
        <ele>97</ele>
        <time>2024-06-03T18:12:15Z</time>
      </trkpt>
      <trkpt lat="48.58737" lon="-3.12947">
        <ele>91</ele>
        <time>2024-06-03T18:12:39Z</time>
      </trkpt>
      <trkpt lat="48.58739" lon="-3.12775">
        <ele>78</ele>
        <time>2024-06-03T18:13:05Z</time>
      </trkpt>
      <trkpt lat="48.58655" lon="-3.12779">
        <ele>80</ele>
        <time>2024-06-03T18:13:25Z</time>
      </trkpt>
      <trkpt lat="48.58552" lon="-3.12818">
        <ele>90</ele>
        <time>2024-06-03T18:13:50Z</time>
      </trkpt>
      <trkpt lat="48.5846" lon="-3.12788">
        <ele>97</ele>
        <time>2024-06-03T18:14:12Z</time>
      </trkpt>
      <trkpt lat="48.58406" lon="-3.12739">
        <ele>100</ele>
        <time>2024-06-03T18:14:27Z</time>
      </trkpt>
      <trkpt lat="48.5836" lon="-3.12712">
        <ele>102</ele>
        <time>2024-06-03T18:14:38Z</time>
      </trkpt>
      <trkpt lat="48.58284" lon="-3.12616">
        <ele>104</ele>
        <time>2024-06-03T18:15:01Z</time>
      </trkpt>
      <trkpt lat="48.58195" lon="-3.12606">
        <ele>101</ele>
        <time>2024-06-03T18:15:22Z</time>
      </trkpt>
      <trkpt lat="48.58167" lon="-3.12555">
        <ele>94</ele>
        <time>2024-06-03T18:15:32Z</time>
      </trkpt>
      <trkpt lat="48.58189" lon="-3.12489">
        <ele>92</ele>
        <time>2024-06-03T18:15:44Z</time>
      </trkpt>
      <trkpt lat="48.58234" lon="-3.12474">
        <ele>94</ele>
        <time>2024-06-03T18:15:55Z</time>
      </trkpt>
      <trkpt lat="48.58295" lon="-3.12412">
        <ele>89</ele>
        <time>2024-06-03T18:16:12Z</time>
      </trkpt>
      <trkpt lat="48.58314" lon="-3.12317">
        <ele>95</ele>
        <time>2024-06-03T18:16:27Z</time>
      </trkpt>
      <trkpt lat="48.58353" lon="-3.12258">
        <ele>97</ele>
        <time>2024-06-03T18:16:40Z</time>
      </trkpt>
      <trkpt lat="48.584" lon="-3.12232">
        <ele>98</ele>
        <time>2024-06-03T18:16:52Z</time>
      </trkpt>
      <trkpt lat="48.58447" lon="-3.1225">
        <ele>102</ele>
        <time>2024-06-03T18:17:03Z</time>
      </trkpt>
      <trkpt lat="48.58495" lon="-3.12239">
        <ele>106</ele>
        <time>2024-06-03T18:17:14Z</time>
      </trkpt>
      <trkpt lat="48.58556" lon="-3.12142">
        <ele>113</ele>
        <time>2024-06-03T18:17:35Z</time>
      </trkpt>
      <trkpt lat="48.58537" lon="-3.11956">
        <ele>113</ele>
        <time>2024-06-03T18:18:04Z</time>
      </trkpt>
      <trkpt lat="48.58565" lon="-3.11884">
        <ele>118</ele>
        <time>2024-06-03T18:18:17Z</time>
      </trkpt>
      <trkpt lat="48.58617" lon="-3.11853">
        <ele>120</ele>
        <time>2024-06-03T18:18:30Z</time>
      </trkpt>
      <trkpt lat="48.59085" lon="-3.11301">
        <ele>112</ele>
        <time>2024-06-03T18:20:49Z</time>
      </trkpt>
      <trkpt lat="48.59165" lon="-3.11142">
        <ele>114</ele>
        <time>2024-06-03T18:21:19Z</time>
      </trkpt>
      <trkpt lat="48.59225" lon="-3.11038">
        <ele>115</ele>
        <time>2024-06-03T18:21:41Z</time>
      </trkpt>
      <trkpt lat="48.59305" lon="-3.10962">
        <ele>114</ele>
        <time>2024-06-03T18:22:03Z</time>
      </trkpt>
      <trkpt lat="48.59354" lon="-3.10803">
        <ele>111</ele>
        <time>2024-06-03T18:22:30Z</time>
      </trkpt>
      <trkpt lat="48.59357" lon="-3.10733">
        <ele>111</ele>
        <time>2024-06-03T18:22:41Z</time>
      </trkpt>
      <trkpt lat="48.59428" lon="-3.10547">
        <ele>108</ele>
        <time>2024-06-03T18:23:14Z</time>
      </trkpt>
      <trkpt lat="48.59575" lon="-3.10267">
        <ele>104</ele>
        <time>2024-06-03T18:24:09Z</time>
      </trkpt>
      <trkpt lat="48.59511" lon="-3.10197">
        <ele>106</ele>
        <time>2024-06-03T18:24:28Z</time>
      </trkpt>
      <trkpt lat="48.59402" lon="-3.10179">
        <ele>105</ele>
        <time>2024-06-03T18:24:53Z</time>
      </trkpt>
      <trkpt lat="48.59325" lon="-3.1011">
        <ele>105</ele>
        <time>2024-06-03T18:25:14Z</time>
      </trkpt>
      <trkpt lat="48.59344" lon="-3.10051">
        <ele>104</ele>
        <time>2024-06-03T18:25:24Z</time>
      </trkpt>
      <trkpt lat="48.59323" lon="-3.10009">
        <ele>104</ele>
        <time>2024-06-03T18:25:32Z</time>
      </trkpt>
      <trkpt lat="48.59233" lon="-3.09927">
        <ele>104</ele>
        <time>2024-06-03T18:25:57Z</time>
      </trkpt>
      <trkpt lat="48.59218" lon="-3.09924">
        <ele>104</ele>
        <time>2024-06-03T18:26:00Z</time>
      </trkpt>
      <trkpt lat="48.59205" lon="-3.09932">
        <ele>104</ele>
        <time>2024-06-03T18:26:04Z</time>
      </trkpt>
      <trkpt lat="48.59189" lon="-3.09925">
        <ele>105</ele>
        <time>2024-06-03T18:26:08Z</time>
      </trkpt>
      <trkpt lat="48.59181" lon="-3.09902">
        <ele>105</ele>
        <time>2024-06-03T18:26:12Z</time>
      </trkpt>
      <trkpt lat="48.59187" lon="-3.09881">
        <ele>104</ele>
        <time>2024-06-03T18:26:15Z</time>
      </trkpt>
      <trkpt lat="48.59162" lon="-3.09818">
        <ele>105</ele>
        <time>2024-06-03T18:26:26Z</time>
      </trkpt>
      <trkpt lat="48.59205" lon="-3.09761">
        <ele>104</ele>
        <time>2024-06-03T18:26:40Z</time>
      </trkpt>
      <trkpt lat="48.5923" lon="-3.09723">
        <ele>105</ele>
        <time>2024-06-03T18:26:48Z</time>
      </trkpt>
      <trkpt lat="48.5937" lon="-3.09791">
        <ele>103</ele>
        <time>2024-06-03T18:27:22Z</time>
      </trkpt>
      <trkpt lat="48.59406" lon="-3.09802">
        <ele>102</ele>
        <time>2024-06-03T18:27:31Z</time>
      </trkpt>
      <trkpt lat="48.59474" lon="-3.09684">
        <ele>103</ele>
        <time>2024-06-03T18:27:55Z</time>
      </trkpt>
      <trkpt lat="48.59548" lon="-3.09527">
        <ele>101</ele>
        <time>2024-06-03T18:28:25Z</time>
      </trkpt>
      <trkpt lat="48.5959" lon="-3.09365">
        <ele>101</ele>
        <time>2024-06-03T18:28:52Z</time>
      </trkpt>
      <trkpt lat="48.59596" lon="-3.09287">
        <ele>99</ele>
        <time>2024-06-03T18:29:04Z</time>
      </trkpt>
      <trkpt lat="48.59562" lon="-3.09218">
        <ele>99</ele>
        <time>2024-06-03T18:29:17Z</time>
      </trkpt>
      <trkpt lat="48.59476" lon="-3.09129">
        <ele>101</ele>
        <time>2024-06-03T18:29:42Z</time>
      </trkpt>
      <trkpt lat="48.59475" lon="-3.09068">
        <ele>101</ele>
        <time>2024-06-03T18:29:51Z</time>
      </trkpt>
      <trkpt lat="48.59521" lon="-3.08898">
        <ele>101</ele>
        <time>2024-06-03T18:30:19Z</time>
      </trkpt>
      <trkpt lat="48.5952" lon="-3.08843">
        <ele>101</ele>
        <time>2024-06-03T18:30:28Z</time>
      </trkpt>
      <trkpt lat="48.59598" lon="-3.08858">
        <ele>99</ele>
        <time>2024-06-03T18:30:46Z</time>
      </trkpt>
      <trkpt lat="48.59646" lon="-3.08663">
        <ele>100</ele>
        <time>2024-06-03T18:31:18Z</time>
      </trkpt>
      <trkpt lat="48.59589" lon="-3.08623">
        <ele>100</ele>
        <time>2024-06-03T18:31:33Z</time>
      </trkpt>
      <trkpt lat="48.5952" lon="-3.08623">
        <ele>100</ele>
        <time>2024-06-03T18:31:49Z</time>
      </trkpt>
      <trkpt lat="48.59504" lon="-3.08601">
        <ele>100</ele>
        <time>2024-06-03T18:31:54Z</time>
      </trkpt>
      <trkpt lat="48.59503" lon="-3.08508">
        <ele>99</ele>
        <time>2024-06-03T18:32:09Z</time>
      </trkpt>
      <trkpt lat="48.59489" lon="-3.08439">
        <ele>99</ele>
        <time>2024-06-03T18:32:20Z</time>
      </trkpt>
      <trkpt lat="48.5961" lon="-3.08321">
        <ele>97</ele>
        <time>2024-06-03T18:32:53Z</time>
      </trkpt>
      <trkpt lat="48.59627" lon="-3.08242">
        <ele>95</ele>
        <time>2024-06-03T18:33:06Z</time>
      </trkpt>
      <trkpt lat="48.59632" lon="-3.08121">
        <ele>93</ele>
        <time>2024-06-03T18:33:25Z</time>
      </trkpt>
      <trkpt lat="48.59654" lon="-3.08034">
        <ele>92</ele>
        <time>2024-06-03T18:33:39Z</time>
      </trkpt>
      <trkpt lat="48.59638" lon="-3.07943">
        <ele>93</ele>
        <time>2024-06-03T18:33:54Z</time>
      </trkpt>
      <trkpt lat="48.59625" lon="-3.07845">
        <ele>96</ele>
        <time>2024-06-03T18:34:09Z</time>
      </trkpt>
      <trkpt lat="48.59628" lon="-3.07777">
        <ele>96</ele>
        <time>2024-06-03T18:34:20Z</time>
      </trkpt>
      <trkpt lat="48.59526" lon="-3.07851">
        <ele>101</ele>
        <time>2024-06-03T18:34:46Z</time>
      </trkpt>
      <trkpt lat="48.59461" lon="-3.07933">
        <ele>102</ele>
        <time>2024-06-03T18:35:06Z</time>
      </trkpt>
      <trkpt lat="48.5937" lon="-3.07948">
        <ele>102</ele>
        <time>2024-06-03T18:35:27Z</time>
      </trkpt>
      <trkpt lat="48.59154" lon="-3.07909">
        <ele>102</ele>
        <time>2024-06-03T18:36:18Z</time>
      </trkpt>
      <trkpt lat="48.59124" lon="-3.07875">
        <ele>101</ele>
        <time>2024-06-03T18:36:27Z</time>
      </trkpt>
      <trkpt lat="48.59048" lon="-3.07865">
        <ele>102</ele>
        <time>2024-06-03T18:36:45Z</time>
      </trkpt>
      <trkpt lat="48.58962" lon="-3.07883">
        <ele>105</ele>
        <time>2024-06-03T18:37:05Z</time>
      </trkpt>
      <trkpt lat="48.58927" lon="-3.07997">
        <ele>103</ele>
        <time>2024-06-03T18:37:24Z</time>
      </trkpt>
      <trkpt lat="48.58871" lon="-3.08019">
        <ele>103</ele>
        <time>2024-06-03T18:37:38Z</time>
      </trkpt>
      <trkpt lat="48.58823" lon="-3.08014">
        <ele>103</ele>
        <time>2024-06-03T18:37:49Z</time>
      </trkpt>
      <trkpt lat="48.58771" lon="-3.08062">
        <ele>104</ele>
        <time>2024-06-03T18:38:03Z</time>
      </trkpt>
      <trkpt lat="48.58737" lon="-3.08117">
        <ele>105</ele>
        <time>2024-06-03T18:38:15Z</time>
      </trkpt>
      <trkpt lat="48.58661" lon="-3.08164">
        <ele>107</ele>
        <time>2024-06-03T18:38:34Z</time>
      </trkpt>
      <trkpt lat="48.58501" lon="-3.08182">
        <ele>114</ele>
        <time>2024-06-03T18:39:12Z</time>
      </trkpt>
      <trkpt lat="48.58434" lon="-3.08158">
        <ele>116</ele>
        <time>2024-06-03T18:39:28Z</time>
      </trkpt>
      <trkpt lat="48.58402" lon="-3.08173">
        <ele>117</ele>
        <time>2024-06-03T18:39:36Z</time>
      </trkpt>
      <trkpt lat="48.58346" lon="-3.08158">
        <ele>117</ele>
        <time>2024-06-03T18:39:49Z</time>
      </trkpt>
      <trkpt lat="48.58288" lon="-3.08124">
        <ele>118</ele>
        <time>2024-06-03T18:40:03Z</time>
      </trkpt>
      <trkpt lat="48.58221" lon="-3.08151">
        <ele>118</ele>
        <time>2024-06-03T18:40:20Z</time>
      </trkpt>
      <trkpt lat="48.58179" lon="-3.0819">
        <ele>118</ele>
        <time>2024-06-03T18:40:31Z</time>
      </trkpt>
      <trkpt lat="48.58121" lon="-3.08201">
        <ele>119</ele>
        <time>2024-06-03T18:40:45Z</time>
      </trkpt>
      <trkpt lat="48.58065" lon="-3.08274">
        <ele>119</ele>
        <time>2024-06-03T18:41:02Z</time>
      </trkpt>
      <trkpt lat="48.58036" lon="-3.08164">
        <ele>121</ele>
        <time>2024-06-03T18:41:20Z</time>
      </trkpt>
      <trkpt lat="48.58011" lon="-3.08108">
        <ele>121</ele>
        <time>2024-06-03T18:41:31Z</time>
      </trkpt>
      <trkpt lat="48.57956" lon="-3.08118">
        <ele>121</ele>
        <time>2024-06-03T18:41:44Z</time>
      </trkpt>
      <trkpt lat="48.5786" lon="-3.08217">
        <ele>120</ele>
        <time>2024-06-03T18:42:11Z</time>
      </trkpt>
      <trkpt lat="48.57713" lon="-3.08113">
        <ele>123</ele>
        <time>2024-06-03T18:42:49Z</time>
      </trkpt>
      <trkpt lat="48.57684" lon="-3.08261">
        <ele>122</ele>
        <time>2024-06-03T18:43:13Z</time>
      </trkpt>
      <trkpt lat="48.57652" lon="-3.08342">
        <ele>122</ele>
        <time>2024-06-03T18:43:27Z</time>
      </trkpt>
      <trkpt lat="48.57609" lon="-3.08419">
        <ele>123</ele>
        <time>2024-06-03T18:43:43Z</time>
      </trkpt>
      <trkpt lat="48.57587" lon="-3.08496">
        <ele>123</ele>
        <time>2024-06-03T18:43:56Z</time>
      </trkpt>
      <trkpt lat="48.5755" lon="-3.08548">
        <ele>123</ele>
        <time>2024-06-03T18:44:08Z</time>
      </trkpt>
      <trkpt lat="48.57557" lon="-3.08567">
        <ele>123</ele>
        <time>2024-06-03T18:44:11Z</time>
      </trkpt>
      <trkpt lat="48.57519" lon="-3.09018">
        <ele>124</ele>
        <time>2024-06-03T18:45:21Z</time>
      </trkpt>
      <trkpt lat="48.57648" lon="-3.09237">
        <ele>123</ele>
        <time>2024-06-03T18:46:06Z</time>
      </trkpt>
      <trkpt lat="48.57659" lon="-3.09345">
        <ele>122</ele>
        <time>2024-06-03T18:46:23Z</time>
      </trkpt>
      <trkpt lat="48.57629" lon="-3.09445">
        <ele>120</ele>
        <time>2024-06-03T18:46:40Z</time>
      </trkpt>
      <trkpt lat="48.57604" lon="-3.09593">
        <ele>121</ele>
        <time>2024-06-03T18:47:04Z</time>
      </trkpt>
      <trkpt lat="48.57337" lon="-3.09508">
        <ele>125</ele>
        <time>2024-06-03T18:48:08Z</time>
      </trkpt>
      <trkpt lat="48.57266" lon="-3.09473">
        <ele>127</ele>
        <time>2024-06-03T18:48:25Z</time>
      </trkpt>
      <trkpt lat="48.57198" lon="-3.09362">
        <ele>129</ele>
        <time>2024-06-03T18:48:48Z</time>
      </trkpt>
      <trkpt lat="48.57101" lon="-3.09387">
        <ele>130</ele>
        <time>2024-06-03T18:49:11Z</time>
      </trkpt>
      <trkpt lat="48.57056" lon="-3.09441">
        <ele>130</ele>
        <time>2024-06-03T18:49:25Z</time>
      </trkpt>
      <trkpt lat="48.56952" lon="-3.09375">
        <ele>131</ele>
        <time>2024-06-03T18:49:51Z</time>
      </trkpt>
      <trkpt lat="48.56901" lon="-3.0963">
        <ele>133</ele>
        <time>2024-06-03T18:50:32Z</time>
      </trkpt>
      <trkpt lat="48.56807" lon="-3.09561">
        <ele>133</ele>
        <time>2024-06-03T18:50:57Z</time>
      </trkpt>
      <trkpt lat="48.56673" lon="-3.09366">
        <ele>132</ele>
        <time>2024-06-03T18:51:40Z</time>
      </trkpt>
      <trkpt lat="48.56568" lon="-3.09261">
        <ele>131</ele>
        <time>2024-06-03T18:52:10Z</time>
      </trkpt>
      <trkpt lat="48.56528" lon="-3.09161">
        <ele>132</ele>
        <time>2024-06-03T18:52:28Z</time>
      </trkpt>
      <trkpt lat="48.56435" lon="-3.09086">
        <ele>133</ele>
        <time>2024-06-03T18:52:52Z</time>
      </trkpt>
      <trkpt lat="48.56337" lon="-3.08939">
        <ele>131</ele>
        <time>2024-06-03T18:53:24Z</time>
      </trkpt>
      <trkpt lat="48.56546" lon="-3.08752">
        <ele>131</ele>
        <time>2024-06-03T18:54:21Z</time>
      </trkpt>
      <trkpt lat="48.56661" lon="-3.08673">
        <ele>130</ele>
        <time>2024-06-03T18:54:51Z</time>
      </trkpt>
      <trkpt lat="48.56898" lon="-3.0863">
        <ele>128</ele>
        <time>2024-06-03T18:55:46Z</time>
      </trkpt>
      <trkpt lat="48.56747" lon="-3.08445">
        <ele>128</ele>
        <time>2024-06-03T18:56:32Z</time>
      </trkpt>
      <trkpt lat="48.56667" lon="-3.0853">
        <ele>130</ele>
        <time>2024-06-03T18:56:55Z</time>
      </trkpt>
      <trkpt lat="48.5662" lon="-3.08664">
        <ele>130</ele>
        <time>2024-06-03T18:57:18Z</time>
      </trkpt>
      <trkpt lat="48.56588" lon="-3.087">
        <ele>130</ele>
        <time>2024-06-03T18:57:27Z</time>
      </trkpt>
      <trkpt lat="48.56552" lon="-3.08715">
        <ele>131</ele>
        <time>2024-06-03T18:57:36Z</time>
      </trkpt>
      <trkpt lat="48.56434" lon="-3.08609">
        <ele>133</ele>
        <time>2024-06-03T18:58:08Z</time>
      </trkpt>
      <trkpt lat="48.56498" lon="-3.08405">
        <ele>130</ele>
        <time>2024-06-03T18:58:43Z</time>
      </trkpt>
      <trkpt lat="48.56488" lon="-3.0829">
        <ele>130</ele>
        <time>2024-06-03T18:59:01Z</time>
      </trkpt>
      <trkpt lat="48.56522" lon="-3.08181">
        <ele>130</ele>
        <time>2024-06-03T18:59:20Z</time>
      </trkpt>
      <trkpt lat="48.56562" lon="-3.08138">
        <ele>128</ele>
        <time>2024-06-03T18:59:31Z</time>
      </trkpt>
      <trkpt lat="48.56504" lon="-3.08063">
        <ele>129</ele>
        <time>2024-06-03T18:59:49Z</time>
      </trkpt>
      <trkpt lat="48.56518" lon="-3.0795">
        <ele>126</ele>
        <time>2024-06-03T19:00:07Z</time>
      </trkpt>
      <trkpt lat="48.56522" lon="-3.07882">
        <ele>125</ele>
        <time>2024-06-03T19:00:17Z</time>
      </trkpt>
      <trkpt lat="48.56517" lon="-3.07774">
        <ele>125</ele>
        <time>2024-06-03T19:00:34Z</time>
      </trkpt>
      <trkpt lat="48.56558" lon="-3.07753">
        <ele>124</ele>
        <time>2024-06-03T19:00:44Z</time>
      </trkpt>
      <trkpt lat="48.56601" lon="-3.07772">
        <ele>123</ele>
        <time>2024-06-03T19:00:55Z</time>
      </trkpt>
      <trkpt lat="48.56638" lon="-3.07814">
        <ele>123</ele>
        <time>2024-06-03T19:01:05Z</time>
      </trkpt>
      <trkpt lat="48.56668" lon="-3.07818">
        <ele>123</ele>
        <time>2024-06-03T19:01:12Z</time>
      </trkpt>
      <trkpt lat="48.56714" lon="-3.07752">
        <ele>122</ele>
        <time>2024-06-03T19:01:27Z</time>
      </trkpt>
      <trkpt lat="48.56739" lon="-3.07692">
        <ele>121</ele>
        <time>2024-06-03T19:01:38Z</time>
      </trkpt>
      <trkpt lat="48.56778" lon="-3.07644">
        <ele>120</ele>
        <time>2024-06-03T19:01:50Z</time>
      </trkpt>
      <trkpt lat="48.56847" lon="-3.07615">
        <ele>120</ele>
        <time>2024-06-03T19:02:07Z</time>
      </trkpt>
      <trkpt lat="48.56929" lon="-3.07552">
        <ele>119</ele>
        <time>2024-06-03T19:02:28Z</time>
      </trkpt>
      <trkpt lat="48.56964" lon="-3.07543">
        <ele>119</ele>
        <time>2024-06-03T19:02:36Z</time>
      </trkpt>
      <trkpt lat="48.56993" lon="-3.07469">
        <ele>118</ele>
        <time>2024-06-03T19:02:50Z</time>
      </trkpt>
      <trkpt lat="48.57015" lon="-3.07456">
        <ele>118</ele>
        <time>2024-06-03T19:02:55Z</time>
      </trkpt>
      <trkpt lat="48.57034" lon="-3.07427">
        <ele>119</ele>
        <time>2024-06-03T19:03:02Z</time>
      </trkpt>
      <trkpt lat="48.57062" lon="-3.07396">
        <ele>119</ele>
        <time>2024-06-03T19:03:10Z</time>
      </trkpt>
      <trkpt lat="48.57078" lon="-3.07349">
        <ele>119</ele>
        <time>2024-06-03T19:03:18Z</time>
      </trkpt>
      <trkpt lat="48.57106" lon="-3.07228">
        <ele>120</ele>
        <time>2024-06-03T19:03:38Z</time>
      </trkpt>
      <trkpt lat="48.57126" lon="-3.07188">
        <ele>123</ele>
        <time>2024-06-03T19:03:45Z</time>
      </trkpt>
      <trkpt lat="48.57113" lon="-3.07171">
        <ele>123</ele>
        <time>2024-06-03T19:03:49Z</time>
      </trkpt>
      <trkpt lat="48.57029" lon="-3.07155">
        <ele>118</ele>
        <time>2024-06-03T19:04:09Z</time>
      </trkpt>
      <trkpt lat="48.57029" lon="-3.07008">
        <ele>119</ele>
        <time>2024-06-03T19:04:32Z</time>
      </trkpt>
      <trkpt lat="48.56952" lon="-3.07028">
        <ele>115</ele>
        <time>2024-06-03T19:04:50Z</time>
      </trkpt>
      <trkpt lat="48.5692" lon="-3.0705">
        <ele>114</ele>
        <time>2024-06-03T19:04:58Z</time>
      </trkpt>
      <trkpt lat="48.56877" lon="-3.07073">
        <ele>115</ele>
        <time>2024-06-03T19:05:09Z</time>
      </trkpt>
      <trkpt lat="48.56838" lon="-3.07056">
        <ele>116</ele>
        <time>2024-06-03T19:05:18Z</time>
      </trkpt>
      <trkpt lat="48.56805" lon="-3.07066">
        <ele>117</ele>
        <time>2024-06-03T19:05:26Z</time>
      </trkpt>
      <trkpt lat="48.56756" lon="-3.07144">
        <ele>117</ele>
        <time>2024-06-03T19:05:43Z</time>
      </trkpt>
      <trkpt lat="48.56693" lon="-3.07362">
        <ele>120</ele>
        <time>2024-06-03T19:06:20Z</time>
      </trkpt>
      <trkpt lat="48.56668" lon="-3.07424">
        <ele>120</ele>
        <time>2024-06-03T19:06:31Z</time>
      </trkpt>
      <trkpt lat="48.56605" lon="-3.07564">
        <ele>121</ele>
        <time>2024-06-03T19:06:57Z</time>
      </trkpt>
      <trkpt lat="48.56598" lon="-3.07616">
        <ele>121</ele>
        <time>2024-06-03T19:07:05Z</time>
      </trkpt>
      <trkpt lat="48.56474" lon="-3.07802">
        <ele>125</ele>
        <time>2024-06-03T19:07:46Z</time>
      </trkpt>
      <trkpt lat="48.56359" lon="-3.07923">
        <ele>127</ele>
        <time>2024-06-03T19:08:19Z</time>
      </trkpt>
      <trkpt lat="48.56281" lon="-3.08081">
        <ele>131</ele>
        <time>2024-06-03T19:08:49Z</time>
      </trkpt>
      <trkpt lat="48.56243" lon="-3.08129">
        <ele>131</ele>
        <time>2024-06-03T19:09:01Z</time>
      </trkpt>
      <trkpt lat="48.56195" lon="-3.08266">
        <ele>132</ele>
        <time>2024-06-03T19:09:25Z</time>
      </trkpt>
      <trkpt lat="48.56004" lon="-3.08148">
        <ele>130</ele>
        <time>2024-06-03T19:10:13Z</time>
      </trkpt>
      <trkpt lat="48.55958" lon="-3.08151">
        <ele>130</ele>
        <time>2024-06-03T19:10:24Z</time>
      </trkpt>
      <trkpt lat="48.55841" lon="-3.08063">
        <ele>131</ele>
        <time>2024-06-03T19:10:54Z</time>
      </trkpt>
      <trkpt lat="48.55737" lon="-3.07884">
        <ele>129</ele>
        <time>2024-06-03T19:11:31Z</time>
      </trkpt>
      <trkpt lat="48.55735" lon="-3.07783">
        <ele>129</ele>
        <time>2024-06-03T19:11:47Z</time>
      </trkpt>
      <trkpt lat="48.55592" lon="-3.07771">
        <ele>128</ele>
        <time>2024-06-03T19:12:20Z</time>
      </trkpt>
      <trkpt lat="48.55558" lon="-3.07711">
        <ele>129</ele>
        <time>2024-06-03T19:12:32Z</time>
      </trkpt>
      <trkpt lat="48.5554" lon="-3.07665">
        <ele>130</ele>
        <time>2024-06-03T19:12:41Z</time>
      </trkpt>
      <trkpt lat="48.5548" lon="-3.07674">
        <ele>130</ele>
        <time>2024-06-03T19:12:55Z</time>
      </trkpt>
      <trkpt lat="48.55415" lon="-3.07659">
        <ele>129</ele>
        <time>2024-06-03T19:13:10Z</time>
      </trkpt>
      <trkpt lat="48.55444" lon="-3.07847">
        <ele>128</ele>
        <time>2024-06-03T19:13:40Z</time>
      </trkpt>
      <trkpt lat="48.55502" lon="-3.07978">
        <ele>128</ele>
        <time>2024-06-03T19:14:04Z</time>
      </trkpt>
      <trkpt lat="48.55554" lon="-3.0816">
        <ele>128</ele>
        <time>2024-06-03T19:14:35Z</time>
      </trkpt>
      <trkpt lat="48.55564" lon="-3.08348">
        <ele>126</ele>
        <time>2024-06-03T19:15:04Z</time>
      </trkpt>
      <trkpt lat="48.55663" lon="-3.08645">
        <ele>121</ele>
        <time>2024-06-03T19:15:55Z</time>
      </trkpt>
      <trkpt lat="48.55669" lon="-3.08669">
        <ele>121</ele>
        <time>2024-06-03T19:15:59Z</time>
      </trkpt>
      <trkpt lat="48.55542" lon="-3.08676">
        <ele>120</ele>
        <time>2024-06-03T19:16:29Z</time>
      </trkpt>
      <trkpt lat="48.55389" lon="-3.08733">
        <ele>117</ele>
        <time>2024-06-03T19:17:06Z</time>
      </trkpt>
      <trkpt lat="48.55361" lon="-3.08679">
        <ele>118</ele>
        <time>2024-06-03T19:17:16Z</time>
      </trkpt>
      <trkpt lat="48.55373" lon="-3.08545">
        <ele>120</ele>
        <time>2024-06-03T19:17:37Z</time>
      </trkpt>
      <trkpt lat="48.55385" lon="-3.08445">
        <ele>121</ele>
        <time>2024-06-03T19:17:53Z</time>
      </trkpt>
      <trkpt lat="48.55331" lon="-3.08399">
        <ele>120</ele>
        <time>2024-06-03T19:18:08Z</time>
      </trkpt>
      <trkpt lat="48.55267" lon="-3.0839">
        <ele>122</ele>
        <time>2024-06-03T19:18:23Z</time>
      </trkpt>
      <trkpt lat="48.55195" lon="-3.0828">
        <ele>125</ele>
        <time>2024-06-03T19:18:47Z</time>
      </trkpt>
      <trkpt lat="48.55176" lon="-3.08291">
        <ele>126</ele>
        <time>2024-06-03T19:18:51Z</time>
      </trkpt>
      <trkpt lat="48.5515" lon="-3.08278">
        <ele>127</ele>
        <time>2024-06-03T19:18:58Z</time>
      </trkpt>
      <trkpt lat="48.55084" lon="-3.07789">
        <ele>133</ele>
        <time>2024-06-03T19:20:15Z</time>
      </trkpt>
      <trkpt lat="48.5498" lon="-3.07701">
        <ele>136</ele>
        <time>2024-06-03T19:20:43Z</time>
      </trkpt>
      <trkpt lat="48.54815" lon="-3.07671">
        <ele>139</ele>
        <time>2024-06-03T19:21:21Z</time>
      </trkpt>
      <trkpt lat="48.54737" lon="-3.0768">
        <ele>139</ele>
        <time>2024-06-03T19:21:40Z</time>
      </trkpt>
      <trkpt lat="48.54622" lon="-3.07884">
        <ele>132</ele>
        <time>2024-06-03T19:22:21Z</time>
      </trkpt>
      <trkpt lat="48.54618" lon="-3.07984">
        <ele>130</ele>
        <time>2024-06-03T19:22:37Z</time>
      </trkpt>
      <trkpt lat="48.5467" lon="-3.08099">
        <ele>129</ele>
        <time>2024-06-03T19:22:58Z</time>
      </trkpt>
      <trkpt lat="48.54724" lon="-3.08278">
        <ele>130</ele>
        <time>2024-06-03T19:23:29Z</time>
      </trkpt>
      <trkpt lat="48.54805" lon="-3.08396">
        <ele>128</ele>
        <time>2024-06-03T19:23:55Z</time>
      </trkpt>
      <trkpt lat="48.54807" lon="-3.08445">
        <ele>128</ele>
        <time>2024-06-03T19:24:02Z</time>
      </trkpt>
      <trkpt lat="48.54921" lon="-3.08472">
        <ele>127</ele>
        <time>2024-06-03T19:24:29Z</time>
      </trkpt>
      <trkpt lat="48.55084" lon="-3.08484">
        <ele>126</ele>
        <time>2024-06-03T19:25:08Z</time>
      </trkpt>
      <trkpt lat="48.55148" lon="-3.08493">
        <ele>124</ele>
        <time>2024-06-03T19:25:23Z</time>
      </trkpt>
      <trkpt lat="48.55203" lon="-3.08548">
        <ele>123</ele>
        <time>2024-06-03T19:25:38Z</time>
      </trkpt>
      <trkpt lat="48.55323" lon="-3.0941">
        <ele>118</ele>
        <time>2024-06-03T19:27:54Z</time>
      </trkpt>
      <trkpt lat="48.55325" lon="-3.09511">
        <ele>120</ele>
        <time>2024-06-03T19:28:10Z</time>
      </trkpt>
      <trkpt lat="48.55251" lon="-3.09568">
        <ele>121</ele>
        <time>2024-06-03T19:28:29Z</time>
      </trkpt>
      <trkpt lat="48.55215" lon="-3.09583">
        <ele>121</ele>
        <time>2024-06-03T19:28:38Z</time>
      </trkpt>
      <trkpt lat="48.5517" lon="-3.0955">
        <ele>122</ele>
        <time>2024-06-03T19:28:50Z</time>
      </trkpt>
      <trkpt lat="48.55134" lon="-3.09786">
        <ele>120</ele>
        <time>2024-06-03T19:29:27Z</time>
      </trkpt>
      <trkpt lat="48.55128" lon="-3.09941">
        <ele>117</ele>
        <time>2024-06-03T19:29:51Z</time>
      </trkpt>
      <trkpt lat="48.5512" lon="-3.10023">
        <ele>116</ele>
        <time>2024-06-03T19:30:04Z</time>
      </trkpt>
      <trkpt lat="48.55166" lon="-3.10071">
        <ele>116</ele>
        <time>2024-06-03T19:30:17Z</time>
      </trkpt>
      <trkpt lat="48.55168" lon="-3.10138">
        <ele>117</ele>
        <time>2024-06-03T19:30:27Z</time>
      </trkpt>
      <trkpt lat="48.55323" lon="-3.10215">
        <ele>119</ele>
        <time>2024-06-03T19:31:05Z</time>
      </trkpt>
      <trkpt lat="48.55446" lon="-3.10281">
        <ele>120</ele>
        <time>2024-06-03T19:31:36Z</time>
      </trkpt>
      <trkpt lat="48.5545" lon="-3.10345">
        <ele>121</ele>
        <time>2024-06-03T19:31:46Z</time>
      </trkpt>
      <trkpt lat="48.5549" lon="-3.10572">
        <ele>121</ele>
        <time>2024-06-03T19:32:22Z</time>
      </trkpt>
      <trkpt lat="48.55492" lon="-3.10657">
        <ele>120</ele>
        <time>2024-06-03T19:32:35Z</time>
      </trkpt>
      <trkpt lat="48.55542" lon="-3.10873">
        <ele>121</ele>
        <time>2024-06-03T19:33:11Z</time>
      </trkpt>
      <trkpt lat="48.556" lon="-3.11307">
        <ele>117</ele>
        <time>2024-06-03T19:34:19Z</time>
      </trkpt>
      <trkpt lat="48.55671" lon="-3.11313">
        <ele>116</ele>
        <time>2024-06-03T19:34:36Z</time>
      </trkpt>
      <trkpt lat="48.55765" lon="-3.11325">
        <ele>120</ele>
        <time>2024-06-03T19:34:58Z</time>
      </trkpt>
      <trkpt lat="48.55777" lon="-3.11522">
        <ele>121</ele>
        <time>2024-06-03T19:35:28Z</time>
      </trkpt>
      <trkpt lat="48.55823" lon="-3.11749">
        <ele>117</ele>
        <time>2024-06-03T19:36:05Z</time>
      </trkpt>
      <trkpt lat="48.5586" lon="-3.11792">
        <ele>118</ele>
        <time>2024-06-03T19:36:16Z</time>
      </trkpt>
      <trkpt lat="48.55877" lon="-3.11823">
        <ele>118</ele>
        <time>2024-06-03T19:36:22Z</time>
      </trkpt>
      <trkpt lat="48.55882" lon="-3.11854">
        <ele>118</ele>
        <time>2024-06-03T19:36:27Z</time>
      </trkpt>
      <trkpt lat="48.55844" lon="-3.11864">
        <ele>117</ele>
        <time>2024-06-03T19:36:36Z</time>
      </trkpt>
      <trkpt lat="48.5584" lon="-3.11878">
        <ele>116</ele>
        <time>2024-06-03T19:36:38Z</time>
      </trkpt>
      <trkpt lat="48.55865" lon="-3.11883">
        <ele>117</ele>
        <time>2024-06-03T19:36:44Z</time>
      </trkpt>
      <trkpt lat="48.55902" lon="-3.11964">
        <ele>114</ele>
        <time>2024-06-03T19:36:59Z</time>
      </trkpt>
      <trkpt lat="48.55916" lon="-3.11973">
        <ele>114</ele>
        <time>2024-06-03T19:37:03Z</time>
      </trkpt>
      <trkpt lat="48.55925" lon="-3.11921">
        <ele>117</ele>
        <time>2024-06-03T19:37:11Z</time>
      </trkpt>
      <trkpt lat="48.5594" lon="-3.1189">
        <ele>118</ele>
        <time>2024-06-03T19:37:17Z</time>
      </trkpt>
      <trkpt lat="48.55945" lon="-3.118">
        <ele>120</ele>
        <time>2024-06-03T19:37:31Z</time>
      </trkpt>
      <trkpt lat="48.55956" lon="-3.11789">
        <ele>121</ele>
        <time>2024-06-03T19:37:34Z</time>
      </trkpt>
      <trkpt lat="48.55948" lon="-3.11731">
        <ele>122</ele>
        <time>2024-06-03T19:37:43Z</time>
      </trkpt>
      <trkpt lat="48.55985" lon="-3.11721">
        <ele>123</ele>
        <time>2024-06-03T19:37:52Z</time>
      </trkpt>
      <trkpt lat="48.55988" lon="-3.11643">
        <ele>124</ele>
        <time>2024-06-03T19:38:04Z</time>
      </trkpt>
      <trkpt lat="48.56016" lon="-3.1154">
        <ele>124</ele>
        <time>2024-06-03T19:38:21Z</time>
      </trkpt>
      <trkpt lat="48.5604" lon="-3.1143">
        <ele>124</ele>
        <time>2024-06-03T19:38:39Z</time>
      </trkpt>
      <trkpt lat="48.56088" lon="-3.11334">
        <ele>122</ele>
        <time>2024-06-03T19:38:58Z</time>
      </trkpt>
      <trkpt lat="48.5608" lon="-3.11279">
        <ele>122</ele>
        <time>2024-06-03T19:39:07Z</time>
      </trkpt>
      <trkpt lat="48.56004" lon="-3.11285">
        <ele>125</ele>
        <time>2024-06-03T19:39:24Z</time>
      </trkpt>
      <trkpt lat="48.55928" lon="-3.11273">
        <ele>124</ele>
        <time>2024-06-03T19:39:42Z</time>
      </trkpt>
      <trkpt lat="48.55911" lon="-3.1126">
        <ele>124</ele>
        <time>2024-06-03T19:39:47Z</time>
      </trkpt>
      <trkpt lat="48.5589" lon="-3.1111">
        <ele>123</ele>
        <time>2024-06-03T19:40:10Z</time>
      </trkpt>
      <trkpt lat="48.55875" lon="-3.11104">
        <ele>122</ele>
        <time>2024-06-03T19:40:14Z</time>
      </trkpt>
      <trkpt lat="48.55865" lon="-3.11146">
        <ele>122</ele>
        <time>2024-06-03T19:40:21Z</time>
      </trkpt>
      <trkpt lat="48.55846" lon="-3.11151">
        <ele>121</ele>
        <time>2024-06-03T19:40:25Z</time>
      </trkpt>
      <trkpt lat="48.55795" lon="-3.1114">
        <ele>119</ele>
        <time>2024-06-03T19:40:37Z</time>
      </trkpt>
      <trkpt lat="48.55788" lon="-3.11154">
        <ele>119</ele>
        <time>2024-06-03T19:40:40Z</time>
      </trkpt>
      <trkpt lat="48.55608" lon="-3.11076">
        <ele>118</ele>
        <time>2024-06-03T19:41:24Z</time>
      </trkpt>
      <trkpt lat="48.55599" lon="-3.10936">
        <ele>120</ele>
        <time>2024-06-03T19:41:46Z</time>
      </trkpt>
      <trkpt lat="48.55619" lon="-3.10784">
        <ele>120</ele>
        <time>2024-06-03T19:42:10Z</time>
      </trkpt>
      <trkpt lat="48.5562" lon="-3.10675">
        <ele>120</ele>
        <time>2024-06-03T19:42:26Z</time>
      </trkpt>
      <trkpt lat="48.55612" lon="-3.10472">
        <ele>121</ele>
        <time>2024-06-03T19:42:58Z</time>
      </trkpt>
      <trkpt lat="48.55652" lon="-3.10369">
        <ele>120</ele>
        <time>2024-06-03T19:43:16Z</time>
      </trkpt>
      <trkpt lat="48.55667" lon="-3.10308">
        <ele>119</ele>
        <time>2024-06-03T19:43:26Z</time>
      </trkpt>
      <trkpt lat="48.55711" lon="-3.1009">
        <ele>115</ele>
        <time>2024-06-03T19:44:02Z</time>
      </trkpt>
      <trkpt lat="48.55715" lon="-3.09968">
        <ele>113</ele>
        <time>2024-06-03T19:44:21Z</time>
      </trkpt>
      <trkpt lat="48.55626" lon="-3.09911">
        <ele>114</ele>
        <time>2024-06-03T19:44:43Z</time>
      </trkpt>
      <trkpt lat="48.55562" lon="-3.09898">
        <ele>114</ele>
        <time>2024-06-03T19:44:58Z</time>
      </trkpt>
      <trkpt lat="48.55494" lon="-3.09857">
        <ele>114</ele>
        <time>2024-06-03T19:45:15Z</time>
      </trkpt>
      <trkpt lat="48.55442" lon="-3.09833">
        <ele>114</ele>
        <time>2024-06-03T19:45:28Z</time>
      </trkpt>
      <trkpt lat="48.55427" lon="-3.09843">
        <ele>115</ele>
        <time>2024-06-03T19:45:32Z</time>
      </trkpt>
      <trkpt lat="48.55423" lon="-3.09805">
        <ele>115</ele>
        <time>2024-06-03T19:45:38Z</time>
      </trkpt>
      <trkpt lat="48.55451" lon="-3.09786">
        <ele>114</ele>
        <time>2024-06-03T19:45:45Z</time>
      </trkpt>
      <trkpt lat="48.55528" lon="-3.09774">
        <ele>112</ele>
        <time>2024-06-03T19:46:03Z</time>
      </trkpt>
      <trkpt lat="48.556" lon="-3.09729">
        <ele>111</ele>
        <time>2024-06-03T19:46:21Z</time>
      </trkpt>
      <trkpt lat="48.5562" lon="-3.09666">
        <ele>110</ele>
        <time>2024-06-03T19:46:32Z</time>
      </trkpt>
      <trkpt lat="48.5558" lon="-3.09566">
        <ele>110</ele>
        <time>2024-06-03T19:46:50Z</time>
      </trkpt>
      <trkpt lat="48.55544" lon="-3.09519">
        <ele>113</ele>
        <time>2024-06-03T19:47:01Z</time>
      </trkpt>
      <trkpt lat="48.55508" lon="-3.09446">
        <ele>114</ele>
        <time>2024-06-03T19:47:15Z</time>
      </trkpt>
      <trkpt lat="48.55444" lon="-3.09446">
        <ele>116</ele>
        <time>2024-06-03T19:47:30Z</time>
      </trkpt>
      <trkpt lat="48.55415" lon="-3.09317">
        <ele>117</ele>
        <time>2024-06-03T19:47:51Z</time>
      </trkpt>
      <trkpt lat="48.55385" lon="-3.09234">
        <ele>118</ele>
        <time>2024-06-03T19:48:06Z</time>
      </trkpt>
      <trkpt lat="48.55407" lon="-3.09161">
        <ele>116</ele>
        <time>2024-06-03T19:48:18Z</time>
      </trkpt>
      <trkpt lat="48.55504" lon="-3.09219">
        <ele>116</ele>
        <time>2024-06-03T19:48:43Z</time>
      </trkpt>
      <trkpt lat="48.55518" lon="-3.09125">
        <ele>116</ele>
        <time>2024-06-03T19:48:58Z</time>
      </trkpt>
      <trkpt lat="48.55508" lon="-3.09067">
        <ele>115</ele>
        <time>2024-06-03T19:49:07Z</time>
      </trkpt>
      <trkpt lat="48.55608" lon="-3.08955">
        <ele>117</ele>
        <time>2024-06-03T19:49:36Z</time>
      </trkpt>
      <trkpt lat="48.55622" lon="-3.08821">
        <ele>119</ele>
        <time>2024-06-03T19:49:57Z</time>
      </trkpt>
      <trkpt lat="48.5562" lon="-3.08697">
        <ele>120</ele>
        <time>2024-06-03T19:50:16Z</time>
      </trkpt>
      <trkpt lat="48.55666" lon="-3.0869">
        <ele>120</ele>
        <time>2024-06-03T19:50:27Z</time>
      </trkpt>
      <trkpt lat="48.55698" lon="-3.08696">
        <ele>121</ele>
        <time>2024-06-03T19:50:34Z</time>
      </trkpt>
      <trkpt lat="48.55823" lon="-3.08748">
        <ele>126</ele>
        <time>2024-06-03T19:51:05Z</time>
      </trkpt>
      <trkpt lat="48.55946" lon="-3.08839">
        <ele>127</ele>
        <time>2024-06-03T19:51:37Z</time>
      </trkpt>
      <trkpt lat="48.56006" lon="-3.08803">
        <ele>128</ele>
        <time>2024-06-03T19:51:52Z</time>
      </trkpt>
      <trkpt lat="48.56054" lon="-3.08852">
        <ele>126</ele>
        <time>2024-06-03T19:52:05Z</time>
      </trkpt>
      <trkpt lat="48.56084" lon="-3.08836">
        <ele>126</ele>
        <time>2024-06-03T19:52:13Z</time>
      </trkpt>
      <trkpt lat="48.56181" lon="-3.08855">
        <ele>127</ele>
        <time>2024-06-03T19:52:35Z</time>
      </trkpt>
      <trkpt lat="48.56235" lon="-3.08915">
        <ele>127</ele>
        <time>2024-06-03T19:52:51Z</time>
      </trkpt>
      <trkpt lat="48.56327" lon="-3.08932">
        <ele>131</ele>
        <time>2024-06-03T19:53:13Z</time>
      </trkpt>
      <trkpt lat="48.56319" lon="-3.08962">
        <ele>130</ele>
        <time>2024-06-03T19:53:18Z</time>
      </trkpt>
      <trkpt lat="48.56285" lon="-3.09011">
        <ele>128</ele>
        <time>2024-06-03T19:53:29Z</time>
      </trkpt>
      <trkpt lat="48.56042" lon="-3.09554">
        <ele>114</ele>
        <time>2024-06-03T19:55:10Z</time>
      </trkpt>
      <trkpt lat="48.558" lon="-3.1013">
        <ele>114</ele>
        <time>2024-06-03T19:56:55Z</time>
      </trkpt>
      <trkpt lat="48.55775" lon="-3.10226">
        <ele>116</ele>
        <time>2024-06-03T19:57:11Z</time>
      </trkpt>
      <trkpt lat="48.5577" lon="-3.10354">
        <ele>119</ele>
        <time>2024-06-03T19:57:31Z</time>
      </trkpt>
      <trkpt lat="48.55774" lon="-3.1042">
        <ele>119</ele>
        <time>2024-06-03T19:57:41Z</time>
      </trkpt>
      <trkpt lat="48.55746" lon="-3.10425">
        <ele>120</ele>
        <time>2024-06-03T19:57:48Z</time>
      </trkpt>
      <trkpt lat="48.55728" lon="-3.10449">
        <ele>120</ele>
        <time>2024-06-03T19:57:54Z</time>
      </trkpt>
    </trkseg>
  </trk>
</gpx>